KLM880 VOBL-EHAM
Flight info
| Callsign | KLM880 |
|---|---|
| Flight time | 10h 4m |
| Altitude | 32000 |
| Route | VAGPU7B VAGPU Q8 AGELA G208 BBB/N0507F330 G208 APANO/N0508F320 G451 AAE Z8 VIKIT/N0506F340 P628 RK G202 ZB L750 RANAH B449 MAMED B450 BIBIM A909 RODAR DCT TETRO/N0482F360 DCT SARPI UM10 GOKPA UL746 INB UW90 DEVMU UL852 NEGEM DCT DEGET DCT ALAMU/N0486F380 DCT MAREG DCT KOVEL DCT DITIS DCT VARIK DCT KATCE DCT NORKU |
| Aircraft | B77W/H-SDE1E2E3FGHIJ2J3J4J5M1RWXY/LB1D1 |
Departure
| Time | 2026-04-29 21:12 |
|---|---|
| Airport | Kempegowda International Airport Bengaluru (VOBL) |
Arrival
| Time | 2026-04-30 07:16 |
|---|---|
| Airport | Amsterdam Airport Schiphol (EHAM) |
| Time | Latitude | Longitude | Altitude | Speed | Heading |
|---|---|---|---|---|---|
| 2026-04-29 20:41 | 13.20195 | 77.69823 | 2984 ft | 0 kts | 179° |
| 2026-04-29 21:05 | 13.20191 | 77.69823 | 2984 ft | 2 kts | 179° |
| 2026-04-29 21:05 | 13.20181 | 77.69823 | 2984 ft | 0 kts | 182° |
| 2026-04-29 21:06 | 13.20175 | 77.69825 | 2984 ft | 3 kts | 162° |
| 2026-04-29 21:06 | 13.20177 | 77.69866 | 2983 ft | 10 kts | 58° |
| 2026-04-29 21:06 | 13.20234 | 77.69935 | 2981 ft | 18 kts | 54° |
| 2026-04-29 21:06 | 13.20272 | 77.70088 | 2977 ft | 24 kts | 91° |
| 2026-04-29 21:07 | 13.20269 | 77.70258 | 2974 ft | 24 kts | 91° |
| 2026-04-29 21:07 | 13.20266 | 77.70429 | 2970 ft | 24 kts | 91° |
| 2026-04-29 21:07 | 13.20264 | 77.70599 | 2956 ft | 24 kts | 91° |
| 2026-04-29 21:07 | 13.20261 | 77.70769 | 2962 ft | 24 kts | 91° |
| 2026-04-29 21:08 | 13.20258 | 77.70940 | 2948 ft | 24 kts | 90° |
| 2026-04-29 21:08 | 13.20258 | 77.71110 | 2945 ft | 24 kts | 90° |
| 2026-04-29 21:08 | 13.20259 | 77.71280 | 2942 ft | 24 kts | 90° |
| 2026-04-29 21:08 | 13.20259 | 77.71450 | 2939 ft | 24 kts | 90° |
| 2026-04-29 21:09 | 13.20259 | 77.71620 | 2935 ft | 24 kts | 90° |
| 2026-04-29 21:09 | 13.20260 | 77.71790 | 2939 ft | 24 kts | 90° |
| 2026-04-29 21:09 | 13.20260 | 77.71961 | 2935 ft | 24 kts | 90° |
| 2026-04-29 21:09 | 13.20258 | 77.72131 | 2925 ft | 24 kts | 91° |
| 2026-04-29 21:10 | 13.20319 | 77.72274 | 2928 ft | 24 kts | 21° |
| 2026-04-29 21:10 | 13.20484 | 77.72281 | 2928 ft | 24 kts | 0° |
| 2026-04-29 21:10 | 13.20624 | 77.72281 | 2928 ft | 14 kts | 358° |
| 2026-04-29 21:10 | 13.20686 | 77.72211 | 2930 ft | 14 kts | 280° |
| 2026-04-29 21:11 | 13.20688 | 77.72185 | 2930 ft | 0 kts | 271° |
| 2026-04-29 21:11 | 13.20689 | 77.72087 | 2932 ft | 46 kts | 271° |
| 2026-04-29 21:11 | 13.20695 | 77.71501 | 2945 ft | 118 kts | 270° |
| 2026-04-29 21:11 | 13.20703 | 77.70427 | 2970 ft | 183 kts | 270° |
| 2026-04-29 21:12 | 13.20715 | 77.68948 | 3123 ft | 222 kts | 270° |
| 2026-04-29 21:12 | 13.20778 | 77.67341 | 3894 ft | 227 kts | 280° |
| 2026-04-29 21:12 | 13.21450 | 77.65869 | 4518 ft | 236 kts | 309° |
| 2026-04-29 21:12 | 13.22553 | 77.64561 | 4822 ft | 253 kts | 307° |
| 2026-04-29 21:13 | 13.23632 | 77.63083 | 5138 ft | 266 kts | 303° |
| 2026-04-29 21:13 | 13.24685 | 77.61475 | 5566 ft | 276 kts | 301° |
| 2026-04-29 21:13 | 13.25718 | 77.59790 | 6150 ft | 282 kts | 300° |
| 2026-04-29 21:13 | 13.26906 | 77.58193 | 6634 ft | 286 kts | 322° |
| 2026-04-29 21:14 | 13.28688 | 77.57289 | 7095 ft | 288 kts | 342° |
| 2026-04-29 21:14 | 13.30607 | 77.56665 | 7687 ft | 290 kts | 342° |
| 2026-04-29 21:14 | 13.32529 | 77.56026 | 8376 ft | 290 kts | 342° |
| 2026-04-29 21:14 | 13.34451 | 77.55371 | 9030 ft | 291 kts | 342° |
| 2026-04-29 21:15 | 13.36373 | 77.54702 | 9646 ft | 293 kts | 342° |
| 2026-04-29 21:15 | 13.38312 | 77.54015 | 10229 ft | 296 kts | 342° |
| 2026-04-29 21:15 | 13.40306 | 77.53301 | 10470 ft | 314 kts | 342° |
| 2026-04-29 21:15 | 13.42434 | 77.52531 | 10616 ft | 334 kts | 341° |
| 2026-04-29 21:16 | 13.44689 | 77.51709 | 10781 ft | 354 kts | 341° |
| 2026-04-29 21:16 | 13.47067 | 77.50836 | 10942 ft | 372 kts | 341° |
| 2026-04-29 21:16 | 13.49531 | 77.49927 | 11349 ft | 382 kts | 341° |
| 2026-04-29 21:16 | 13.52053 | 77.48994 | 11881 ft | 388 kts | 341° |
| 2026-04-29 21:17 | 13.54602 | 77.48050 | 12520 ft | 390 kts | 341° |
| 2026-04-29 21:17 | 13.57168 | 77.47098 | 13179 ft | 393 kts | 341° |
| 2026-04-29 21:17 | 13.59751 | 77.46140 | 13808 ft | 397 kts | 341° |
| 2026-04-29 21:17 | 13.62325 | 77.45185 | 14309 ft | 400 kts | 341° |
| 2026-04-29 21:18 | 13.64984 | 77.44198 | 14894 ft | 402 kts | 341° |
| 2026-04-29 21:18 | 13.67623 | 77.43219 | 15484 ft | 404 kts | 341° |
| 2026-04-29 21:18 | 13.70278 | 77.42233 | 16046 ft | 407 kts | 341° |
| 2026-04-29 21:18 | 13.72942 | 77.41244 | 16599 ft | 409 kts | 341° |
| 2026-04-29 21:19 | 13.75596 | 77.40259 | 17136 ft | 412 kts | 340° |
| 2026-04-29 21:19 | 13.78300 | 77.39254 | 17688 ft | 415 kts | 340° |
| 2026-04-29 21:19 | 13.81024 | 77.38242 | 18233 ft | 417 kts | 340° |
| 2026-04-29 21:19 | 13.83763 | 77.37224 | 18696 ft | 420 kts | 340° |
| 2026-04-29 21:20 | 13.86522 | 77.36199 | 19131 ft | 423 kts | 340° |
| 2026-04-29 21:20 | 13.89304 | 77.35165 | 19548 ft | 427 kts | 340° |
| 2026-04-29 21:20 | 13.92105 | 77.34123 | 19991 ft | 430 kts | 340° |
| 2026-04-29 21:20 | 13.94930 | 77.33072 | 20427 ft | 433 kts | 339° |
| 2026-04-29 21:21 | 13.97772 | 77.32014 | 20839 ft | 436 kts | 339° |
| 2026-04-29 21:21 | 14.00641 | 77.30946 | 21258 ft | 440 kts | 339° |
| 2026-04-29 21:21 | 14.03525 | 77.29873 | 21671 ft | 443 kts | 339° |
| 2026-04-29 21:21 | 14.06430 | 77.28791 | 22099 ft | 445 kts | 339° |
| 2026-04-29 21:22 | 14.09353 | 77.27702 | 22518 ft | 448 kts | 338° |
| 2026-04-29 21:22 | 14.12295 | 77.26606 | 22909 ft | 451 kts | 338° |
| 2026-04-29 21:22 | 14.15260 | 77.25501 | 23304 ft | 454 kts | 338° |
| 2026-04-29 21:22 | 14.18238 | 77.24390 | 23647 ft | 457 kts | 338° |
| 2026-04-29 21:23 | 14.21232 | 77.23274 | 23975 ft | 459 kts | 338° |
| 2026-04-29 21:23 | 14.23266 | 77.22515 | 24218 ft | 460 kts | 338° |
| 2026-04-29 21:23 | 14.27253 | 77.21028 | 24781 ft | 459 kts | 338° |
| 2026-04-29 21:23 | 14.30261 | 77.19906 | 25125 ft | 461 kts | 338° |
| 2026-04-29 21:24 | 14.32264 | 77.19158 | 25312 ft | 463 kts | 338° |
| 2026-04-29 21:24 | 14.35302 | 77.18024 | 25584 ft | 466 kts | 338° |
| 2026-04-29 21:24 | 14.38361 | 77.16881 | 25876 ft | 468 kts | 338° |
| 2026-04-29 21:24 | 14.41434 | 77.15733 | 26190 ft | 470 kts | 338° |
| 2026-04-29 21:25 | 14.44516 | 77.14582 | 26493 ft | 472 kts | 338° |
| 2026-04-29 21:25 | 14.47609 | 77.13425 | 26787 ft | 474 kts | 338° |
| 2026-04-29 21:25 | 14.50718 | 77.12262 | 27078 ft | 476 kts | 338° |
| 2026-04-29 21:25 | 14.53837 | 77.11096 | 27370 ft | 478 kts | 338° |
| 2026-04-29 21:26 | 14.56976 | 77.09921 | 27644 ft | 480 kts | 338° |
| 2026-04-29 21:26 | 14.60120 | 77.08745 | 27930 ft | 482 kts | 338° |
| 2026-04-29 21:26 | 14.63284 | 77.07579 | 28249 ft | 482 kts | 338° |
| 2026-04-29 21:26 | 14.66451 | 77.06424 | 28520 ft | 484 kts | 338° |
| 2026-04-29 21:27 | 14.69640 | 77.05266 | 28766 ft | 486 kts | 338° |
| 2026-04-29 21:27 | 14.72836 | 77.04104 | 28963 ft | 488 kts | 338° |
| 2026-04-29 21:27 | 14.76048 | 77.02935 | 29178 ft | 490 kts | 338° |
| 2026-04-29 21:27 | 14.79268 | 77.01761 | 29375 ft | 492 kts | 338° |
| 2026-04-29 21:28 | 14.82492 | 77.00583 | 29610 ft | 493 kts | 338° |
| 2026-04-29 21:28 | 14.85726 | 76.99401 | 29886 ft | 492 kts | 338° |
| 2026-04-29 21:28 | 14.88949 | 76.98222 | 30166 ft | 491 kts | 338° |
| 2026-04-29 21:28 | 14.92155 | 76.97050 | 30424 ft | 490 kts | 338° |
| 2026-04-29 21:29 | 14.95381 | 76.95869 | 30651 ft | 490 kts | 338° |
| 2026-04-29 21:29 | 14.98588 | 76.94694 | 30870 ft | 490 kts | 338° |
| 2026-04-29 21:29 | 15.01806 | 76.93515 | 31110 ft | 489 kts | 338° |
| 2026-04-29 21:29 | 15.05012 | 76.92340 | 31341 ft | 489 kts | 338° |
| 2026-04-29 21:30 | 15.08216 | 76.91166 | 31570 ft | 489 kts | 338° |
| 2026-04-29 21:30 | 15.11415 | 76.89993 | 31786 ft | 489 kts | 338° |
| 2026-04-29 21:30 | 15.14636 | 76.88811 | 31816 ft | 491 kts | 338° |
| 2026-04-29 21:31 | 15.21058 | 76.86455 | 31886 ft | 488 kts | 338° |
| 2026-04-29 21:31 | 15.27442 | 76.84112 | 31887 ft | 486 kts | 338° |
| 2026-04-29 21:32 | 15.33800 | 76.81775 | 31865 ft | 484 kts | 338° |
| 2026-04-29 21:32 | 15.40142 | 76.79443 | 31863 ft | 483 kts | 338° |
| 2026-04-29 21:33 | 15.46466 | 76.77116 | 31871 ft | 483 kts | 338° |
| 2026-04-29 21:33 | 15.52810 | 76.74780 | 31864 ft | 483 kts | 338° |
| 2026-04-29 21:34 | 15.59154 | 76.72442 | 31872 ft | 484 kts | 338° |
| 2026-04-29 21:34 | 15.65469 | 76.70022 | 31863 ft | 482 kts | 332° |
| 2026-04-29 21:35 | 15.70960 | 76.66151 | 31863 ft | 477 kts | 316° |
| 2026-04-29 21:35 | 15.75285 | 76.60977 | 31876 ft | 475 kts | 307° |
| 2026-04-29 21:36 | 15.79307 | 76.55520 | 31871 ft | 476 kts | 307° |
| 2026-04-29 21:36 | 15.83355 | 76.50073 | 31869 ft | 477 kts | 307° |
| 2026-04-29 21:37 | 15.87436 | 76.44634 | 31873 ft | 478 kts | 307° |
| 2026-04-29 21:37 | 15.91530 | 76.39193 | 31879 ft | 478 kts | 307° |
| 2026-04-29 21:38 | 15.95622 | 76.33752 | 31877 ft | 478 kts | 307° |
| 2026-04-29 21:38 | 15.99712 | 76.28308 | 31876 ft | 477 kts | 307° |
| 2026-04-29 21:39 | 16.03791 | 76.22872 | 31874 ft | 476 kts | 307° |
| 2026-04-29 21:39 | 16.07835 | 76.17479 | 31877 ft | 476 kts | 307° |
| 2026-04-29 21:40 | 16.11899 | 76.12056 | 31868 ft | 475 kts | 307° |
| 2026-04-29 21:40 | 16.15963 | 76.06627 | 31878 ft | 476 kts | 307° |
| 2026-04-29 21:41 | 16.20027 | 76.01196 | 31873 ft | 476 kts | 307° |
| 2026-04-29 21:41 | 16.24099 | 75.95749 | 31882 ft | 477 kts | 307° |
| 2026-04-29 21:42 | 16.28171 | 75.90298 | 31875 ft | 477 kts | 307° |
| 2026-04-29 21:42 | 16.32238 | 75.84850 | 31872 ft | 476 kts | 307° |
| 2026-04-29 21:43 | 16.36302 | 75.79402 | 31872 ft | 476 kts | 307° |
| 2026-04-29 21:43 | 16.40354 | 75.73965 | 31872 ft | 475 kts | 308° |
| 2026-04-29 21:44 | 16.44379 | 75.68561 | 31875 ft | 475 kts | 308° |
| 2026-04-29 21:44 | 16.48422 | 75.63128 | 31876 ft | 475 kts | 308° |
| 2026-04-29 21:45 | 16.52465 | 75.57691 | 31876 ft | 475 kts | 308° |
| 2026-04-29 21:45 | 16.56508 | 75.52248 | 31873 ft | 475 kts | 308° |
| 2026-04-29 21:46 | 16.60576 | 75.46823 | 31877 ft | 475 kts | 310° |
| 2026-04-29 21:46 | 16.65164 | 75.41866 | 31871 ft | 476 kts | 315° |
| 2026-04-29 21:47 | 16.69886 | 75.37020 | 31879 ft | 477 kts | 315° |
| 2026-04-29 21:47 | 16.74605 | 75.32141 | 31884 ft | 478 kts | 315° |
| 2026-04-29 21:48 | 16.79319 | 75.27237 | 31885 ft | 479 kts | 315° |
| 2026-04-29 21:48 | 16.84039 | 75.22314 | 31883 ft | 480 kts | 315° |
| 2026-04-29 21:49 | 16.88755 | 75.17391 | 31879 ft | 480 kts | 315° |
| 2026-04-29 21:49 | 16.93478 | 75.12460 | 31869 ft | 480 kts | 315° |
| 2026-04-29 21:50 | 16.98198 | 75.07528 | 31877 ft | 480 kts | 315° |
| 2026-04-29 21:50 | 17.02920 | 75.02590 | 31867 ft | 480 kts | 315° |
| 2026-04-29 21:51 | 17.07640 | 74.97650 | 31873 ft | 480 kts | 315° |
| 2026-04-29 21:51 | 17.14679 | 74.90277 | 31869 ft | 480 kts | 315° |
| 2026-04-29 21:52 | 17.19393 | 74.85335 | 31870 ft | 480 kts | 315° |
| 2026-04-29 21:52 | 17.24102 | 74.80394 | 31865 ft | 479 kts | 315° |
| 2026-04-29 21:53 | 17.28806 | 74.75455 | 31861 ft | 479 kts | 315° |
| 2026-04-29 21:53 | 17.33509 | 74.70512 | 31862 ft | 479 kts | 315° |
| 2026-04-29 21:54 | 17.38204 | 74.65575 | 31861 ft | 479 kts | 315° |
| 2026-04-29 21:54 | 17.42898 | 74.60634 | 31863 ft | 479 kts | 315° |
| 2026-04-29 21:55 | 17.47592 | 74.55690 | 31862 ft | 479 kts | 315° |
| 2026-04-29 21:55 | 17.52280 | 74.50747 | 31869 ft | 478 kts | 315° |
| 2026-04-29 21:56 | 17.56956 | 74.45815 | 31860 ft | 476 kts | 315° |
| 2026-04-29 21:56 | 17.61609 | 74.40902 | 31860 ft | 474 kts | 315° |
| 2026-04-29 21:57 | 17.66248 | 74.36001 | 31862 ft | 473 kts | 315° |
| 2026-04-29 21:57 | 17.70879 | 74.31104 | 31863 ft | 473 kts | 315° |
| 2026-04-29 21:58 | 17.75508 | 74.26204 | 31869 ft | 473 kts | 315° |
| 2026-04-29 21:58 | 17.80113 | 74.21328 | 31880 ft | 474 kts | 315° |
| 2026-04-29 21:59 | 17.84753 | 74.16409 | 31878 ft | 474 kts | 315° |
| 2026-04-29 21:59 | 17.89398 | 74.11482 | 31874 ft | 475 kts | 315° |
| 2026-04-29 22:00 | 17.94041 | 74.06552 | 31885 ft | 474 kts | 315° |
| 2026-04-29 22:00 | 17.98675 | 74.01627 | 31886 ft | 474 kts | 315° |
| 2026-04-29 22:01 | 18.03301 | 73.96708 | 31873 ft | 473 kts | 315° |
| 2026-04-29 22:01 | 18.07984 | 73.91836 | 31890 ft | 473 kts | 316° |
| 2026-04-29 22:02 | 18.12702 | 73.87007 | 31895 ft | 474 kts | 316° |
| 2026-04-29 22:02 | 18.17422 | 73.82164 | 31883 ft | 474 kts | 316° |
| 2026-04-29 22:03 | 18.22135 | 73.77308 | 31890 ft | 474 kts | 316° |
| 2026-04-29 22:03 | 18.26843 | 73.72447 | 31891 ft | 474 kts | 316° |
| 2026-04-29 22:04 | 18.31552 | 73.67581 | 31889 ft | 474 kts | 316° |
| 2026-04-29 22:04 | 18.36260 | 73.62712 | 31876 ft | 474 kts | 316° |
| 2026-04-29 22:05 | 18.40966 | 73.57842 | 31893 ft | 474 kts | 316° |
| 2026-04-29 22:06 | 18.48025 | 73.50530 | 31876 ft | 475 kts | 316° |
| 2026-04-29 22:06 | 18.52733 | 73.45648 | 31876 ft | 475 kts | 316° |
| 2026-04-29 22:07 | 18.57435 | 73.40768 | 31878 ft | 475 kts | 316° |
| 2026-04-29 22:07 | 18.62139 | 73.35883 | 31864 ft | 474 kts | 316° |
| 2026-04-29 22:08 | 18.66840 | 73.30996 | 31863 ft | 475 kts | 316° |
| 2026-04-29 22:08 | 18.71539 | 73.26106 | 31871 ft | 474 kts | 316° |
| 2026-04-29 22:09 | 18.76234 | 73.21217 | 31852 ft | 474 kts | 316° |
| 2026-04-29 22:09 | 18.80922 | 73.16332 | 31848 ft | 474 kts | 316° |
| 2026-04-29 22:10 | 18.85579 | 73.11475 | 31852 ft | 473 kts | 316° |
| 2026-04-29 22:10 | 18.90262 | 73.06586 | 31838 ft | 473 kts | 316° |
| 2026-04-29 22:11 | 18.94944 | 73.01694 | 31835 ft | 473 kts | 316° |
| 2026-04-29 22:11 | 18.98861 | 72.97597 | 31810 ft | 473 kts | 316° |
| 2026-04-29 22:12 | 19.03533 | 72.92710 | 31799 ft | 472 kts | 316° |
| 2026-04-29 22:12 | 19.08812 | 72.88763 | 31813 ft | 468 kts | 338° |
| 2026-04-29 22:13 | 19.15207 | 72.87484 | 31798 ft | 472 kts | 0° |
| 2026-04-29 22:13 | 19.21787 | 72.87870 | 31814 ft | 476 kts | 1° |
| 2026-04-29 22:14 | 19.28421 | 72.88227 | 31818 ft | 479 kts | 0° |
| 2026-04-29 22:14 | 19.35053 | 72.88532 | 31823 ft | 481 kts | 0° |
| 2026-04-29 22:15 | 19.41733 | 72.88817 | 31820 ft | 480 kts | 360° |
| 2026-04-29 22:15 | 19.48402 | 72.89100 | 31816 ft | 479 kts | 360° |
| 2026-04-29 22:16 | 19.55045 | 72.89383 | 31813 ft | 477 kts | 360° |
| 2026-04-29 22:16 | 19.61666 | 72.89667 | 31819 ft | 475 kts | 360° |
| 2026-04-29 22:17 | 19.68269 | 72.89950 | 31823 ft | 474 kts | 0° |
| 2026-04-29 22:17 | 19.74860 | 72.90234 | 31814 ft | 474 kts | 0° |
| 2026-04-29 22:18 | 19.81441 | 72.90516 | 31816 ft | 473 kts | 0° |
| 2026-04-29 22:18 | 19.88021 | 72.90800 | 31823 ft | 473 kts | 0° |
| 2026-04-29 22:19 | 19.94609 | 72.91083 | 31815 ft | 474 kts | 0° |
| 2026-04-29 22:19 | 20.01201 | 72.91367 | 31820 ft | 474 kts | 0° |
| 2026-04-29 22:20 | 20.07800 | 72.91651 | 31813 ft | 475 kts | 0° |
| 2026-04-29 22:20 | 20.14401 | 72.91937 | 31815 ft | 475 kts | 0° |
| 2026-04-29 22:21 | 20.21000 | 72.92222 | 31805 ft | 475 kts | 0° |
| 2026-04-29 22:21 | 20.27597 | 72.92507 | 31806 ft | 474 kts | 0° |
| 2026-04-29 22:22 | 20.34194 | 72.92793 | 31804 ft | 474 kts | 0° |
| 2026-04-29 22:22 | 20.40788 | 72.93079 | 31806 ft | 474 kts | 0° |
| 2026-04-29 22:23 | 20.47383 | 72.93365 | 31804 ft | 474 kts | 0° |
| 2026-04-29 22:23 | 20.53931 | 72.93649 | 31808 ft | 474 kts | 0° |
| 2026-04-29 22:24 | 20.60522 | 72.93935 | 31794 ft | 474 kts | 0° |
| 2026-04-29 22:24 | 20.67112 | 72.94222 | 31798 ft | 474 kts | 360° |
| 2026-04-29 22:25 | 20.73699 | 72.94508 | 31795 ft | 474 kts | 360° |
| 2026-04-29 22:25 | 20.80284 | 72.94780 | 31790 ft | 473 kts | 359° |
| 2026-04-29 22:26 | 20.86861 | 72.95020 | 31794 ft | 473 kts | 359° |
| 2026-04-29 22:26 | 20.93436 | 72.95262 | 31800 ft | 473 kts | 359° |
| 2026-04-29 22:27 | 21.00010 | 72.95508 | 31783 ft | 473 kts | 359° |
| 2026-04-29 22:27 | 21.06580 | 72.95755 | 31791 ft | 472 kts | 359° |
| 2026-04-29 22:28 | 21.13146 | 72.96002 | 31771 ft | 472 kts | 359° |
| 2026-04-29 22:28 | 21.19707 | 72.96253 | 31777 ft | 472 kts | 360° |
| 2026-04-29 22:29 | 21.26226 | 72.96587 | 31787 ft | 472 kts | 0° |
| 2026-04-29 22:29 | 21.32784 | 72.96949 | 31783 ft | 472 kts | 0° |
| 2026-04-29 22:30 | 21.39345 | 72.97299 | 31773 ft | 472 kts | 0° |
| 2026-04-29 22:30 | 21.45912 | 72.97643 | 31770 ft | 472 kts | 0° |
| 2026-04-29 22:31 | 21.52476 | 72.97988 | 31776 ft | 472 kts | 0° |
| 2026-04-29 22:31 | 21.59020 | 72.97918 | 31788 ft | 469 kts | 352° |
| 2026-04-29 22:32 | 21.65423 | 72.96720 | 31776 ft | 466 kts | 345° |
| 2026-04-29 22:32 | 21.71755 | 72.95182 | 31764 ft | 466 kts | 345° |
| 2026-04-29 22:33 | 21.78016 | 72.93675 | 31761 ft | 466 kts | 346° |
| 2026-04-29 22:33 | 21.84421 | 72.92152 | 31758 ft | 466 kts | 346° |
| 2026-04-29 22:34 | 21.90757 | 72.90653 | 31760 ft | 466 kts | 346° |
| 2026-04-29 22:34 | 21.97049 | 72.89162 | 31751 ft | 466 kts | 346° |
| 2026-04-29 22:35 | 22.03369 | 72.87663 | 31756 ft | 465 kts | 346° |
| 2026-04-29 22:35 | 22.09685 | 72.86164 | 31749 ft | 464 kts | 346° |
| 2026-04-29 22:36 | 22.15988 | 72.84666 | 31750 ft | 464 kts | 346° |
| 2026-04-29 22:36 | 22.22285 | 72.83168 | 31750 ft | 463 kts | 346° |
| 2026-04-29 22:37 | 22.28578 | 72.81669 | 31740 ft | 463 kts | 346° |
| 2026-04-29 22:37 | 22.34860 | 72.80172 | 31740 ft | 462 kts | 346° |
| 2026-04-29 22:38 | 22.41141 | 72.78674 | 31737 ft | 462 kts | 346° |
| 2026-04-29 22:38 | 22.47410 | 72.77177 | 31734 ft | 462 kts | 346° |
| 2026-04-29 22:39 | 22.53677 | 72.75679 | 31740 ft | 461 kts | 345° |
| 2026-04-29 22:39 | 22.59931 | 72.74183 | 31729 ft | 460 kts | 345° |
| 2026-04-29 22:40 | 22.66176 | 72.72688 | 31729 ft | 459 kts | 345° |
| 2026-04-29 22:40 | 22.72416 | 72.71192 | 31728 ft | 459 kts | 345° |
| 2026-04-29 22:41 | 22.78654 | 72.69695 | 31729 ft | 459 kts | 345° |
| 2026-04-29 22:41 | 22.84884 | 72.68199 | 31727 ft | 458 kts | 345° |
| 2026-04-29 22:42 | 22.91103 | 72.66704 | 31720 ft | 458 kts | 345° |
| 2026-04-29 22:42 | 22.97324 | 72.65208 | 31720 ft | 458 kts | 345° |
| 2026-04-29 22:43 | 23.03501 | 72.63720 | 31721 ft | 457 kts | 345° |
| 2026-04-29 22:43 | 23.09716 | 72.62246 | 31735 ft | 457 kts | 346° |
| 2026-04-29 22:44 | 23.15952 | 72.60877 | 31722 ft | 457 kts | 346° |
| 2026-04-29 22:44 | 23.22188 | 72.59524 | 31710 ft | 457 kts | 346° |
| 2026-04-29 22:45 | 23.28421 | 72.58157 | 31724 ft | 457 kts | 346° |
| 2026-04-29 22:45 | 23.34655 | 72.56781 | 31723 ft | 457 kts | 346° |
| 2026-04-29 22:46 | 23.40894 | 72.55400 | 31738 ft | 458 kts | 346° |
| 2026-04-29 22:46 | 23.47135 | 72.54018 | 31724 ft | 458 kts | 346° |
| 2026-04-29 22:47 | 23.53371 | 72.52636 | 31723 ft | 457 kts | 346° |
| 2026-04-29 22:47 | 23.59596 | 72.51255 | 31725 ft | 456 kts | 346° |
| 2026-04-29 22:48 | 23.65812 | 72.49875 | 31724 ft | 456 kts | 346° |
| 2026-04-29 22:48 | 23.72018 | 72.48496 | 31733 ft | 455 kts | 345° |
| 2026-04-29 22:49 | 23.78225 | 72.47115 | 31724 ft | 455 kts | 345° |
| 2026-04-29 22:49 | 23.84424 | 72.45734 | 31725 ft | 454 kts | 345° |
| 2026-04-29 22:50 | 23.90578 | 72.44362 | 31726 ft | 454 kts | 345° |
| 2026-04-29 22:50 | 23.96767 | 72.42981 | 31724 ft | 454 kts | 345° |
| 2026-04-29 22:51 | 24.02959 | 72.41599 | 31729 ft | 455 kts | 345° |
| 2026-04-29 22:51 | 24.12271 | 72.39529 | 31728 ft | 456 kts | 345° |
| 2026-04-29 22:52 | 24.18490 | 72.38148 | 31730 ft | 456 kts | 345° |
| 2026-04-29 22:52 | 24.24715 | 72.36764 | 31729 ft | 457 kts | 345° |
| 2026-04-29 22:53 | 24.30942 | 72.35376 | 31730 ft | 457 kts | 345° |
| 2026-04-29 22:53 | 24.37175 | 72.33986 | 31726 ft | 457 kts | 345° |
| 2026-04-29 22:54 | 24.43406 | 72.32595 | 31725 ft | 457 kts | 345° |
| 2026-04-29 22:54 | 24.49633 | 72.31203 | 31725 ft | 457 kts | 345° |
| 2026-04-29 22:55 | 24.55857 | 72.29811 | 31725 ft | 456 kts | 345° |
| 2026-04-29 22:55 | 24.62077 | 72.28418 | 31729 ft | 456 kts | 345° |
| 2026-04-29 22:56 | 24.68288 | 72.27026 | 31724 ft | 455 kts | 345° |
| 2026-04-29 22:56 | 24.74485 | 72.25635 | 31720 ft | 454 kts | 345° |
| 2026-04-29 22:57 | 24.80677 | 72.24250 | 31713 ft | 454 kts | 345° |
| 2026-04-29 22:57 | 24.86830 | 72.22899 | 31727 ft | 454 kts | 345° |
| 2026-04-29 22:58 | 24.93026 | 72.21538 | 31709 ft | 454 kts | 345° |
| 2026-04-29 22:58 | 24.99231 | 72.20176 | 31708 ft | 455 kts | 346° |
| 2026-04-29 22:59 | 25.05538 | 72.19325 | 31704 ft | 457 kts | 350° |
| 2026-04-29 22:59 | 25.11873 | 72.18638 | 31699 ft | 457 kts | 350° |
| 2026-04-29 23:00 | 25.18207 | 72.17933 | 31708 ft | 457 kts | 349° |
| 2026-04-29 23:00 | 25.23470 | 72.17336 | 31695 ft | 457 kts | 349° |
| 2026-04-29 23:01 | 25.29792 | 72.16615 | 31691 ft | 457 kts | 349° |
| 2026-04-29 23:01 | 25.36118 | 72.15893 | 31692 ft | 456 kts | 349° |
| 2026-04-29 23:02 | 25.43455 | 72.15056 | 31688 ft | 456 kts | 349° |
| 2026-04-29 23:02 | 25.48746 | 72.14451 | 31697 ft | 456 kts | 349° |
| 2026-04-29 23:03 | 25.55062 | 72.13728 | 31690 ft | 456 kts | 349° |
| 2026-04-29 23:03 | 25.61376 | 72.13005 | 31682 ft | 456 kts | 349° |
| 2026-04-29 23:04 | 25.67643 | 72.12287 | 31683 ft | 455 kts | 349° |
| 2026-04-29 23:04 | 25.73945 | 72.11573 | 31679 ft | 455 kts | 349° |
| 2026-04-29 23:05 | 25.80249 | 72.10868 | 31688 ft | 455 kts | 349° |
| 2026-04-29 23:05 | 25.86551 | 72.10162 | 31668 ft | 455 kts | 349° |
| 2026-04-29 23:06 | 25.92847 | 72.09455 | 31685 ft | 455 kts | 349° |
| 2026-04-29 23:06 | 25.99141 | 72.08745 | 31666 ft | 455 kts | 349° |
| 2026-04-29 23:07 | 26.05433 | 72.08036 | 31681 ft | 455 kts | 349° |
| 2026-04-29 23:07 | 26.11725 | 72.07326 | 31671 ft | 454 kts | 349° |
| 2026-04-29 23:08 | 26.18010 | 72.06615 | 31670 ft | 454 kts | 349° |
| 2026-04-29 23:08 | 26.24285 | 72.05906 | 31670 ft | 453 kts | 349° |
| 2026-04-29 23:09 | 26.30553 | 72.05196 | 31669 ft | 453 kts | 349° |
| 2026-04-29 23:09 | 26.36820 | 72.04485 | 31678 ft | 453 kts | 349° |
| 2026-04-29 23:10 | 26.43086 | 72.03774 | 31669 ft | 453 kts | 349° |
| 2026-04-29 23:10 | 26.49349 | 72.03062 | 31669 ft | 452 kts | 349° |
| 2026-04-29 23:11 | 26.55614 | 72.02349 | 31663 ft | 453 kts | 349° |
| 2026-04-29 23:11 | 26.61877 | 72.01636 | 31672 ft | 453 kts | 349° |
| 2026-04-29 23:12 | 26.68148 | 72.00921 | 31661 ft | 453 kts | 349° |
| 2026-04-29 23:12 | 26.74427 | 72.00204 | 31659 ft | 453 kts | 349° |
| 2026-04-29 23:13 | 26.80707 | 71.99487 | 31660 ft | 453 kts | 349° |
| 2026-04-29 23:13 | 26.86943 | 71.98774 | 31661 ft | 453 kts | 349° |
| 2026-04-29 23:14 | 26.93223 | 71.98055 | 31667 ft | 454 kts | 348° |
| 2026-04-29 23:14 | 26.99505 | 71.97334 | 31654 ft | 454 kts | 348° |
| 2026-04-29 23:15 | 27.05790 | 71.96613 | 31657 ft | 454 kts | 348° |
| 2026-04-29 23:15 | 27.12075 | 71.95891 | 31658 ft | 454 kts | 348° |
| 2026-04-29 23:16 | 27.18355 | 71.95169 | 31651 ft | 454 kts | 348° |
| 2026-04-29 23:16 | 27.24628 | 71.94446 | 31645 ft | 453 kts | 348° |
| 2026-04-29 23:17 | 27.30907 | 71.93722 | 31644 ft | 453 kts | 348° |
| 2026-04-29 23:17 | 27.37185 | 71.92998 | 31640 ft | 453 kts | 348° |
| 2026-04-29 23:18 | 27.43462 | 71.92272 | 31641 ft | 453 kts | 348° |
| 2026-04-29 23:18 | 27.49738 | 71.91546 | 31648 ft | 454 kts | 348° |
| 2026-04-29 23:19 | 27.56019 | 71.90819 | 31624 ft | 454 kts | 348° |
| 2026-04-29 23:19 | 27.62020 | 71.89242 | 31632 ft | 436 kts | 327° |
| 2026-04-29 23:20 | 27.66741 | 71.85050 | 31639 ft | 435 kts | 312° |
| 2026-04-29 23:20 | 27.68533 | 71.82309 | 31622 ft | 435 kts | 299° |
| 2026-04-29 23:20 | 27.69925 | 71.79274 | 31632 ft | 437 kts | 298° |
| 2026-04-29 23:21 | 27.72713 | 71.73133 | 31657 ft | 442 kts | 298° |
| 2026-04-29 23:21 | 27.75569 | 71.66980 | 31637 ft | 443 kts | 299° |
| 2026-04-29 23:22 | 27.78428 | 71.60892 | 31621 ft | 440 kts | 299° |
| 2026-04-29 23:22 | 27.81285 | 71.54814 | 31610 ft | 437 kts | 299° |
| 2026-04-29 23:23 | 27.84119 | 71.48771 | 31613 ft | 434 kts | 299° |
| 2026-04-29 23:23 | 27.86939 | 71.42749 | 31619 ft | 433 kts | 299° |
| 2026-04-29 23:24 | 27.89659 | 71.36673 | 31621 ft | 434 kts | 297° |
| 2026-04-29 23:24 | 27.92307 | 71.30539 | 31625 ft | 435 kts | 297° |
| 2026-04-29 23:25 | 27.94964 | 71.24389 | 31639 ft | 436 kts | 297° |
| 2026-04-29 23:25 | 27.97637 | 71.18228 | 31626 ft | 436 kts | 297° |
| 2026-04-29 23:26 | 28.00312 | 71.12067 | 31623 ft | 436 kts | 297° |
| 2026-04-29 23:26 | 28.02985 | 71.05901 | 31625 ft | 436 kts | 297° |
| 2026-04-29 23:27 | 28.05654 | 70.99737 | 31627 ft | 436 kts | 297° |
| 2026-04-29 23:27 | 28.08317 | 70.93575 | 31614 ft | 435 kts | 297° |
| 2026-04-29 23:28 | 28.10975 | 70.87414 | 31605 ft | 435 kts | 297° |
| 2026-04-29 23:28 | 28.13610 | 70.81300 | 31622 ft | 435 kts | 297° |
| 2026-04-29 23:29 | 28.16278 | 70.75098 | 31631 ft | 435 kts | 297° |
| 2026-04-29 23:29 | 28.18928 | 70.68929 | 31620 ft | 435 kts | 297° |
| 2026-04-29 23:30 | 28.21556 | 70.62801 | 31618 ft | 435 kts | 297° |
| 2026-04-29 23:30 | 28.24194 | 70.56640 | 31628 ft | 434 kts | 297° |
| 2026-04-29 23:31 | 28.26826 | 70.50484 | 31626 ft | 434 kts | 297° |
| 2026-04-29 23:31 | 28.29458 | 70.44317 | 31622 ft | 434 kts | 297° |
| 2026-04-29 23:32 | 28.32088 | 70.38146 | 31620 ft | 434 kts | 297° |
| 2026-04-29 23:32 | 28.34800 | 70.32039 | 31604 ft | 431 kts | 305° |
| 2026-04-29 23:33 | 28.36793 | 70.29507 | 31646 ft | 433 kts | 317° |
| 2026-04-29 23:33 | 28.39212 | 70.27431 | 31631 ft | 438 kts | 323° |
| 2026-04-29 23:33 | 28.41891 | 70.25762 | 31613 ft | 444 kts | 334° |
| 2026-04-29 23:33 | 28.44878 | 70.24787 | 31642 ft | 447 kts | 340° |
| 2026-04-29 23:34 | 28.50968 | 70.23172 | 31619 ft | 451 kts | 341° |
| 2026-04-29 23:34 | 28.57082 | 70.21523 | 31630 ft | 452 kts | 340° |
| 2026-04-29 23:35 | 28.63198 | 70.19821 | 31626 ft | 453 kts | 340° |
| 2026-04-29 23:35 | 28.69309 | 70.18095 | 31622 ft | 452 kts | 340° |
| 2026-04-29 23:36 | 28.75416 | 70.16362 | 31623 ft | 452 kts | 340° |
| 2026-04-29 23:36 | 28.81513 | 70.14631 | 31624 ft | 451 kts | 340° |
| 2026-04-29 23:37 | 28.87600 | 70.12902 | 31624 ft | 450 kts | 340° |
| 2026-04-29 23:37 | 28.93678 | 70.11174 | 31639 ft | 450 kts | 340° |
| 2026-04-29 23:38 | 28.99745 | 70.09446 | 31632 ft | 449 kts | 340° |
| 2026-04-29 23:38 | 29.05806 | 70.07718 | 31628 ft | 448 kts | 340° |
| 2026-04-29 23:39 | 29.11852 | 70.05992 | 31645 ft | 448 kts | 339° |
| 2026-04-29 23:39 | 29.17856 | 70.04277 | 31660 ft | 448 kts | 339° |
| 2026-04-29 23:40 | 29.23899 | 70.02548 | 31655 ft | 448 kts | 339° |
| 2026-04-29 23:40 | 29.29942 | 70.00816 | 31655 ft | 448 kts | 339° |
| 2026-04-29 23:41 | 29.35983 | 69.99084 | 31679 ft | 447 kts | 339° |
| 2026-04-29 23:41 | 29.42025 | 69.97349 | 31714 ft | 448 kts | 339° |
| 2026-04-29 23:42 | 29.48076 | 69.95607 | 31686 ft | 449 kts | 340° |
| 2026-04-29 23:42 | 29.54131 | 69.93865 | 31682 ft | 449 kts | 340° |
| 2026-04-29 23:43 | 29.60190 | 69.92118 | 31688 ft | 449 kts | 340° |
| 2026-04-29 23:43 | 29.66246 | 69.90371 | 31715 ft | 449 kts | 339° |
| 2026-04-29 23:44 | 29.72312 | 69.88618 | 31721 ft | 449 kts | 339° |
| 2026-04-29 23:44 | 29.78377 | 69.86864 | 31725 ft | 449 kts | 339° |
| 2026-04-29 23:45 | 29.84434 | 69.85109 | 31727 ft | 449 kts | 339° |
| 2026-04-29 23:45 | 29.90484 | 69.83356 | 31729 ft | 447 kts | 339° |
| 2026-04-29 23:46 | 29.96521 | 69.81602 | 31757 ft | 448 kts | 339° |
| 2026-04-29 23:46 | 30.02571 | 69.79841 | 31752 ft | 449 kts | 339° |
| 2026-04-29 23:47 | 30.08599 | 69.78086 | 31771 ft | 450 kts | 339° |
| 2026-04-29 23:47 | 30.14672 | 69.76316 | 31777 ft | 451 kts | 339° |
| 2026-04-29 23:48 | 30.20756 | 69.74541 | 31788 ft | 451 kts | 339° |
| 2026-04-29 23:48 | 30.26860 | 69.72777 | 31787 ft | 454 kts | 340° |
| 2026-04-29 23:49 | 30.33050 | 69.71248 | 31778 ft | 455 kts | 342° |
| 2026-04-29 23:49 | 30.39261 | 69.69786 | 31789 ft | 456 kts | 342° |
| 2026-04-29 23:50 | 30.44469 | 69.68538 | 31810 ft | 456 kts | 341° |
| 2026-04-29 23:51 | 30.53764 | 69.66267 | 31783 ft | 455 kts | 341° |
| 2026-04-29 23:51 | 30.59910 | 69.64756 | 31782 ft | 454 kts | 341° |
| 2026-04-29 23:52 | 30.66080 | 69.63238 | 31792 ft | 453 kts | 341° |
| 2026-04-29 23:52 | 30.72253 | 69.61717 | 31815 ft | 454 kts | 341° |
| 2026-04-29 23:53 | 30.78432 | 69.60192 | 31805 ft | 454 kts | 341° |
| 2026-04-29 23:53 | 30.84607 | 69.58668 | 31781 ft | 454 kts | 341° |
| 2026-04-29 23:54 | 30.90777 | 69.57143 | 31805 ft | 453 kts | 341° |
| 2026-04-29 23:54 | 30.96947 | 69.55615 | 31812 ft | 453 kts | 341° |
| 2026-04-29 23:55 | 31.03124 | 69.54083 | 31800 ft | 454 kts | 341° |
| 2026-04-29 23:55 | 31.09302 | 69.52551 | 31780 ft | 454 kts | 341° |
| 2026-04-29 23:56 | 31.15478 | 69.51016 | 31797 ft | 453 kts | 341° |
| 2026-04-29 23:56 | 31.21645 | 69.49481 | 31829 ft | 452 kts | 341° |
| 2026-04-29 23:57 | 31.27802 | 69.47946 | 31815 ft | 453 kts | 341° |
| 2026-04-29 23:57 | 31.33695 | 69.45741 | 31798 ft | 438 kts | 326° |
| 2026-04-29 23:58 | 31.38591 | 69.41581 | 31811 ft | 435 kts | 313° |
| 2026-04-29 23:58 | 31.42413 | 69.36123 | 31806 ft | 436 kts | 306° |
| 2026-04-29 23:59 | 31.46149 | 69.30498 | 31813 ft | 440 kts | 306° |
| 2026-04-29 23:59 | 31.49915 | 69.24895 | 31824 ft | 442 kts | 307° |
| 2026-04-30 00:00 | 31.53726 | 69.19255 | 31780 ft | 440 kts | 307° |
| 2026-04-30 00:00 | 31.57506 | 69.13660 | 31802 ft | 436 kts | 306° |
| 2026-04-30 00:01 | 31.61251 | 69.08104 | 31825 ft | 432 kts | 307° |
| 2026-04-30 00:01 | 31.64976 | 69.02568 | 31844 ft | 432 kts | 306° |
| 2026-04-30 00:02 | 31.68729 | 68.97063 | 31838 ft | 432 kts | 308° |
| 2026-04-30 00:02 | 31.72612 | 68.91663 | 31815 ft | 432 kts | 308° |
| 2026-04-30 00:03 | 31.76511 | 68.86269 | 31833 ft | 434 kts | 308° |
| 2026-04-30 00:03 | 31.80413 | 68.80822 | 31995 ft | 436 kts | 308° |
| 2026-04-30 00:03 | 31.82356 | 68.78099 | 32342 ft | 433 kts | 308° |
| 2026-04-30 00:04 | 31.84277 | 68.75403 | 32716 ft | 428 kts | 307° |
| 2026-04-30 00:04 | 31.86185 | 68.72723 | 33045 ft | 426 kts | 307° |
| 2026-04-30 00:04 | 31.88087 | 68.70049 | 33243 ft | 426 kts | 307° |
| 2026-04-30 00:04 | 31.89985 | 68.67377 | 33443 ft | 426 kts | 307° |
| 2026-04-30 00:05 | 31.91883 | 68.64703 | 33598 ft | 426 kts | 307° |
| 2026-04-30 00:05 | 31.93776 | 68.62036 | 33777 ft | 425 kts | 307° |
| 2026-04-30 00:05 | 31.95669 | 68.59366 | 33808 ft | 424 kts | 307° |
| 2026-04-30 00:06 | 31.99444 | 68.54038 | 33854 ft | 423 kts | 307° |
| 2026-04-30 00:06 | 32.03202 | 68.48726 | 33848 ft | 421 kts | 307° |
| 2026-04-30 00:07 | 32.06950 | 68.43422 | 33866 ft | 421 kts | 307° |
| 2026-04-30 00:07 | 32.10698 | 68.38108 | 33864 ft | 422 kts | 307° |
| 2026-04-30 00:08 | 32.14448 | 68.32784 | 33870 ft | 422 kts | 307° |
| 2026-04-30 00:08 | 32.18201 | 68.27448 | 33861 ft | 422 kts | 307° |
| 2026-04-30 00:09 | 32.21953 | 68.22108 | 33860 ft | 423 kts | 307° |
| 2026-04-30 00:09 | 32.25681 | 68.16793 | 33866 ft | 423 kts | 306° |
| 2026-04-30 00:10 | 32.29458 | 68.11401 | 33870 ft | 423 kts | 306° |
| 2026-04-30 00:10 | 32.33185 | 68.06072 | 33862 ft | 423 kts | 306° |
| 2026-04-30 00:11 | 32.36936 | 68.00702 | 33860 ft | 423 kts | 306° |
| 2026-04-30 00:11 | 32.40681 | 67.95332 | 33858 ft | 423 kts | 306° |
| 2026-04-30 00:12 | 32.44416 | 67.89968 | 33849 ft | 422 kts | 306° |
| 2026-04-30 00:12 | 32.48146 | 67.84605 | 33855 ft | 422 kts | 306° |
| 2026-04-30 00:13 | 32.51901 | 67.79259 | 33845 ft | 422 kts | 307° |
| 2026-04-30 00:13 | 32.55805 | 67.74065 | 33847 ft | 422 kts | 308° |
| 2026-04-30 00:14 | 32.59719 | 67.68890 | 33844 ft | 421 kts | 308° |
| 2026-04-30 00:14 | 32.63615 | 67.63685 | 33852 ft | 422 kts | 308° |
| 2026-04-30 00:15 | 32.67501 | 67.58466 | 33880 ft | 422 kts | 308° |
| 2026-04-30 00:15 | 32.71390 | 67.53235 | 33863 ft | 422 kts | 308° |
| 2026-04-30 00:16 | 32.75274 | 67.48005 | 33868 ft | 421 kts | 308° |
| 2026-04-30 00:16 | 32.79117 | 67.42774 | 33869 ft | 420 kts | 307° |
| 2026-04-30 00:17 | 32.82821 | 67.37485 | 33891 ft | 419 kts | 306° |
| 2026-04-30 00:17 | 32.86529 | 67.32144 | 33920 ft | 419 kts | 306° |
| 2026-04-30 00:18 | 32.90249 | 67.26802 | 33927 ft | 419 kts | 307° |
| 2026-04-30 00:18 | 32.93967 | 67.21472 | 33897 ft | 418 kts | 306° |
| 2026-04-30 00:19 | 32.97683 | 67.16141 | 33918 ft | 418 kts | 306° |
| 2026-04-30 00:19 | 33.01397 | 67.10805 | 33928 ft | 419 kts | 306° |
| 2026-04-30 00:20 | 33.05117 | 67.05451 | 33949 ft | 419 kts | 306° |
| 2026-04-30 00:20 | 33.08843 | 67.00081 | 33964 ft | 421 kts | 306° |
| 2026-04-30 00:21 | 33.12584 | 66.94681 | 33962 ft | 422 kts | 306° |
| 2026-04-30 00:21 | 33.16326 | 66.89272 | 33949 ft | 423 kts | 306° |
| 2026-04-30 00:22 | 33.20073 | 66.83850 | 33957 ft | 423 kts | 306° |
| 2026-04-30 00:22 | 33.23817 | 66.78423 | 33968 ft | 423 kts | 306° |
| 2026-04-30 00:23 | 33.27561 | 66.72986 | 33960 ft | 424 kts | 306° |
| 2026-04-30 00:23 | 33.31301 | 66.67549 | 33963 ft | 423 kts | 306° |
| 2026-04-30 00:24 | 33.35039 | 66.62105 | 33947 ft | 424 kts | 306° |
| 2026-04-30 00:24 | 33.38772 | 66.56660 | 33919 ft | 422 kts | 306° |
| 2026-04-30 00:25 | 33.42484 | 66.51241 | 33947 ft | 421 kts | 306° |
| 2026-04-30 00:25 | 33.46187 | 66.45824 | 33949 ft | 420 kts | 306° |
| 2026-04-30 00:26 | 33.49876 | 66.40404 | 33953 ft | 419 kts | 306° |
| 2026-04-30 00:26 | 33.53560 | 66.34974 | 33930 ft | 420 kts | 306° |
| 2026-04-30 00:27 | 33.57213 | 66.29583 | 33948 ft | 419 kts | 306° |
| 2026-04-30 00:27 | 33.60890 | 66.24147 | 33932 ft | 418 kts | 305° |
| 2026-04-30 00:28 | 33.64548 | 66.18737 | 33955 ft | 418 kts | 305° |
| 2026-04-30 00:28 | 33.68206 | 66.13314 | 33975 ft | 418 kts | 305° |
| 2026-04-30 00:29 | 33.71852 | 66.07903 | 33948 ft | 415 kts | 305° |
| 2026-04-30 00:29 | 33.75484 | 66.02504 | 33970 ft | 415 kts | 305° |
| 2026-04-30 00:30 | 33.79116 | 65.97094 | 33990 ft | 417 kts | 305° |
| 2026-04-30 00:30 | 33.82778 | 65.91631 | 34009 ft | 422 kts | 305° |
| 2026-04-30 00:31 | 33.86466 | 65.86123 | 34023 ft | 424 kts | 305° |
| 2026-04-30 00:31 | 33.90165 | 65.80591 | 34007 ft | 424 kts | 305° |
| 2026-04-30 00:32 | 33.93820 | 65.75119 | 34018 ft | 423 kts | 305° |
| 2026-04-30 00:32 | 33.97528 | 65.69555 | 34018 ft | 420 kts | 305° |
| 2026-04-30 00:33 | 34.01148 | 65.64118 | 34026 ft | 418 kts | 305° |
| 2026-04-30 00:33 | 34.04770 | 65.58667 | 34029 ft | 416 kts | 304° |
| 2026-04-30 00:34 | 34.08379 | 65.53229 | 34043 ft | 414 kts | 304° |
| 2026-04-30 00:34 | 34.11978 | 65.47809 | 34039 ft | 415 kts | 304° |
| 2026-04-30 00:35 | 34.15594 | 65.42348 | 34048 ft | 418 kts | 304° |
| 2026-04-30 00:35 | 34.19227 | 65.36859 | 34072 ft | 420 kts | 304° |
| 2026-04-30 00:36 | 34.22883 | 65.31324 | 34068 ft | 422 kts | 304° |
| 2026-04-30 00:36 | 34.26550 | 65.25764 | 34066 ft | 423 kts | 304° |
| 2026-04-30 00:37 | 34.30221 | 65.20190 | 34061 ft | 424 kts | 304° |
| 2026-04-30 00:37 | 34.33269 | 65.15556 | 34063 ft | 423 kts | 304° |
| 2026-04-30 00:38 | 34.36924 | 65.09988 | 34071 ft | 423 kts | 304° |
| 2026-04-30 00:38 | 34.40582 | 65.04411 | 34071 ft | 423 kts | 304° |
| 2026-04-30 00:39 | 34.44234 | 64.98830 | 34066 ft | 422 kts | 304° |
| 2026-04-30 00:39 | 34.47875 | 64.93259 | 34060 ft | 421 kts | 304° |
| 2026-04-30 00:40 | 34.51504 | 64.87697 | 34062 ft | 420 kts | 304° |
| 2026-04-30 00:40 | 34.55123 | 64.82136 | 34072 ft | 420 kts | 304° |
| 2026-04-30 00:41 | 34.58740 | 64.76566 | 34068 ft | 421 kts | 304° |
| 2026-04-30 00:41 | 34.62363 | 64.70978 | 34066 ft | 422 kts | 304° |
| 2026-04-30 00:42 | 34.65989 | 64.65375 | 34061 ft | 423 kts | 304° |
| 2026-04-30 00:42 | 34.69625 | 64.59751 | 34060 ft | 423 kts | 304° |
| 2026-04-30 00:43 | 34.73264 | 64.54110 | 34072 ft | 425 kts | 304° |
| 2026-04-30 00:43 | 34.76919 | 64.48437 | 34048 ft | 427 kts | 304° |
| 2026-04-30 00:44 | 34.80578 | 64.42752 | 34043 ft | 426 kts | 304° |
| 2026-04-30 00:44 | 34.84231 | 64.37062 | 34029 ft | 426 kts | 304° |
| 2026-04-30 00:45 | 34.87874 | 64.31386 | 34066 ft | 425 kts | 303° |
| 2026-04-30 00:45 | 34.91517 | 64.25691 | 34046 ft | 426 kts | 304° |
| 2026-04-30 00:46 | 34.95142 | 64.20018 | 34033 ft | 427 kts | 304° |
| 2026-04-30 00:46 | 34.98793 | 64.14295 | 34030 ft | 428 kts | 304° |
| 2026-04-30 00:47 | 35.02450 | 64.08557 | 34008 ft | 428 kts | 304° |
| 2026-04-30 00:47 | 35.06099 | 64.02820 | 34014 ft | 428 kts | 303° |
| 2026-04-30 00:48 | 35.09748 | 63.97073 | 34016 ft | 428 kts | 303° |
| 2026-04-30 00:48 | 35.13393 | 63.91322 | 34033 ft | 428 kts | 303° |
| 2026-04-30 00:49 | 35.17040 | 63.85559 | 34007 ft | 429 kts | 303° |
| 2026-04-30 00:49 | 35.20691 | 63.79781 | 34003 ft | 430 kts | 303° |
| 2026-04-30 00:50 | 35.24342 | 63.73992 | 33994 ft | 430 kts | 304° |
| 2026-04-30 00:50 | 35.27991 | 63.68197 | 33996 ft | 430 kts | 303° |
| 2026-04-30 00:51 | 35.31643 | 63.62394 | 33990 ft | 431 kts | 303° |
| 2026-04-30 00:51 | 35.35304 | 63.56596 | 33981 ft | 430 kts | 303° |
| 2026-04-30 00:52 | 35.38959 | 63.50792 | 33997 ft | 431 kts | 303° |
| 2026-04-30 00:52 | 35.42628 | 63.44951 | 33983 ft | 433 kts | 303° |
| 2026-04-30 00:53 | 35.46309 | 63.39085 | 33968 ft | 434 kts | 303° |
| 2026-04-30 00:53 | 35.49990 | 63.33209 | 33959 ft | 434 kts | 303° |
| 2026-04-30 00:54 | 35.53665 | 63.27330 | 33969 ft | 434 kts | 303° |
| 2026-04-30 00:54 | 35.57335 | 63.21451 | 33959 ft | 434 kts | 303° |
| 2026-04-30 00:55 | 35.60989 | 63.15557 | 33957 ft | 434 kts | 303° |
| 2026-04-30 00:55 | 35.66436 | 63.06672 | 33963 ft | 434 kts | 303° |
| 2026-04-30 00:56 | 35.70070 | 63.00733 | 33956 ft | 435 kts | 303° |
| 2026-04-30 00:56 | 35.73704 | 62.94788 | 33954 ft | 434 kts | 303° |
| 2026-04-30 00:57 | 35.77310 | 62.88882 | 33949 ft | 434 kts | 302° |
| 2026-04-30 00:57 | 35.80959 | 62.82896 | 33942 ft | 434 kts | 302° |
| 2026-04-30 00:58 | 35.84553 | 62.76991 | 33938 ft | 433 kts | 302° |
| 2026-04-30 00:58 | 35.88161 | 62.71049 | 33941 ft | 433 kts | 302° |
| 2026-04-30 00:59 | 35.91775 | 62.65087 | 33945 ft | 434 kts | 302° |
| 2026-04-30 00:59 | 35.95397 | 62.59102 | 33935 ft | 436 kts | 302° |
| 2026-04-30 01:00 | 35.99022 | 62.53102 | 33934 ft | 437 kts | 302° |
| 2026-04-30 01:00 | 36.02654 | 62.47082 | 33956 ft | 437 kts | 302° |
| 2026-04-30 01:01 | 36.06286 | 62.41050 | 33938 ft | 437 kts | 302° |
| 2026-04-30 01:01 | 36.09916 | 62.35009 | 33934 ft | 438 kts | 302° |
| 2026-04-30 01:02 | 36.13552 | 62.28950 | 33934 ft | 438 kts | 302° |
| 2026-04-30 01:02 | 36.17157 | 62.22932 | 33940 ft | 438 kts | 302° |
| 2026-04-30 01:03 | 36.20786 | 62.16861 | 33937 ft | 439 kts | 302° |
| 2026-04-30 01:03 | 36.24419 | 62.10773 | 33936 ft | 440 kts | 302° |
| 2026-04-30 01:04 | 36.28055 | 62.04671 | 33940 ft | 440 kts | 302° |
| 2026-04-30 01:04 | 36.31688 | 61.98562 | 33943 ft | 440 kts | 302° |
| 2026-04-30 01:05 | 36.35322 | 61.92439 | 33948 ft | 441 kts | 302° |
| 2026-04-30 01:05 | 36.38962 | 61.86298 | 33943 ft | 442 kts | 302° |
| 2026-04-30 01:06 | 36.42601 | 61.80144 | 33934 ft | 442 kts | 302° |
| 2026-04-30 01:06 | 36.46241 | 61.73979 | 33939 ft | 442 kts | 302° |
| 2026-04-30 01:07 | 36.49856 | 61.67846 | 33949 ft | 443 kts | 302° |
| 2026-04-30 01:07 | 36.53497 | 61.61655 | 33944 ft | 444 kts | 302° |
| 2026-04-30 01:08 | 36.57141 | 61.55450 | 33939 ft | 445 kts | 302° |
| 2026-04-30 01:08 | 36.60790 | 61.49226 | 33935 ft | 445 kts | 302° |
| 2026-04-30 01:09 | 36.64423 | 61.42977 | 33954 ft | 445 kts | 301° |
| 2026-04-30 01:09 | 36.68004 | 61.36673 | 33940 ft | 446 kts | 301° |
| 2026-04-30 01:10 | 36.71582 | 61.30354 | 33941 ft | 447 kts | 301° |
| 2026-04-30 01:10 | 36.75168 | 61.24024 | 33938 ft | 447 kts | 301° |
| 2026-04-30 01:11 | 36.78754 | 61.17690 | 33961 ft | 447 kts | 301° |
| 2026-04-30 01:11 | 36.82341 | 61.11341 | 33939 ft | 448 kts | 301° |
| 2026-04-30 01:12 | 36.85933 | 61.04974 | 33944 ft | 449 kts | 301° |
| 2026-04-30 01:12 | 36.89522 | 60.98597 | 33935 ft | 449 kts | 301° |
| 2026-04-30 01:13 | 36.93107 | 60.92216 | 33979 ft | 449 kts | 301° |
| 2026-04-30 01:13 | 36.96694 | 60.85822 | 33959 ft | 450 kts | 301° |
| 2026-04-30 01:14 | 37.00455 | 60.79536 | 33956 ft | 452 kts | 303° |
| 2026-04-30 01:14 | 37.04353 | 60.73347 | 33962 ft | 453 kts | 303° |
| 2026-04-30 01:15 | 37.08251 | 60.67152 | 33982 ft | 453 kts | 303° |
| 2026-04-30 01:15 | 37.12136 | 60.60933 | 33973 ft | 454 kts | 303° |
| 2026-04-30 01:16 | 37.16022 | 60.54685 | 33968 ft | 455 kts | 303° |
| 2026-04-30 01:16 | 37.19878 | 60.48469 | 33971 ft | 455 kts | 303° |
| 2026-04-30 01:17 | 37.23766 | 60.42193 | 33974 ft | 455 kts | 303° |
| 2026-04-30 01:17 | 37.27643 | 60.35923 | 33973 ft | 454 kts | 303° |
| 2026-04-30 01:18 | 37.31506 | 60.29663 | 33974 ft | 453 kts | 303° |
| 2026-04-30 01:18 | 37.35358 | 60.23410 | 33980 ft | 452 kts | 303° |
| 2026-04-30 01:19 | 37.39198 | 60.17164 | 34001 ft | 452 kts | 303° |
| 2026-04-30 01:19 | 37.43044 | 60.10895 | 33992 ft | 453 kts | 303° |
| 2026-04-30 01:20 | 37.46887 | 60.04621 | 33999 ft | 453 kts | 303° |
| 2026-04-30 01:20 | 37.50729 | 59.98335 | 33993 ft | 453 kts | 303° |
| 2026-04-30 01:21 | 37.54571 | 59.92039 | 33989 ft | 454 kts | 303° |
| 2026-04-30 01:21 | 37.58422 | 59.85715 | 34003 ft | 455 kts | 302° |
| 2026-04-30 01:22 | 37.62277 | 59.79374 | 34001 ft | 456 kts | 302° |
| 2026-04-30 01:22 | 37.66109 | 59.73058 | 34003 ft | 456 kts | 302° |
| 2026-04-30 01:23 | 37.69992 | 59.66644 | 33997 ft | 457 kts | 302° |
| 2026-04-30 01:23 | 37.73821 | 59.60308 | 33998 ft | 457 kts | 302° |
| 2026-04-30 01:24 | 37.77675 | 59.53918 | 33999 ft | 458 kts | 302° |
| 2026-04-30 01:24 | 37.81535 | 59.47505 | 34011 ft | 459 kts | 302° |
| 2026-04-30 01:25 | 37.85398 | 59.41077 | 34006 ft | 459 kts | 302° |
| 2026-04-30 01:25 | 37.89239 | 59.34612 | 34007 ft | 458 kts | 300° |
| 2026-04-30 01:26 | 37.92598 | 59.27793 | 34013 ft | 456 kts | 297° |
| 2026-04-30 01:26 | 37.95333 | 59.22072 | 34017 ft | 457 kts | 296° |
| 2026-04-30 01:27 | 37.98639 | 59.15178 | 34014 ft | 458 kts | 296° |
| 2026-04-30 01:27 | 38.01957 | 59.08280 | 34016 ft | 458 kts | 297° |
| 2026-04-30 01:28 | 38.05275 | 59.01376 | 34033 ft | 459 kts | 296° |
| 2026-04-30 01:28 | 38.08595 | 58.94453 | 34022 ft | 459 kts | 296° |
| 2026-04-30 01:29 | 38.11911 | 58.87522 | 34019 ft | 459 kts | 296° |
| 2026-04-30 01:29 | 38.15225 | 58.80579 | 34022 ft | 459 kts | 296° |
| 2026-04-30 01:30 | 38.18533 | 58.73637 | 34034 ft | 459 kts | 296° |
| 2026-04-30 01:30 | 38.21843 | 58.66673 | 34026 ft | 460 kts | 296° |
| 2026-04-30 01:31 | 38.25152 | 58.59695 | 34022 ft | 461 kts | 296° |
| 2026-04-30 01:31 | 38.28465 | 58.52695 | 34019 ft | 462 kts | 296° |
| 2026-04-30 01:32 | 38.31774 | 58.45689 | 34045 ft | 462 kts | 296° |
| 2026-04-30 01:32 | 38.35082 | 58.38667 | 34028 ft | 462 kts | 296° |
| 2026-04-30 01:33 | 38.38385 | 58.31645 | 34025 ft | 462 kts | 296° |
| 2026-04-30 01:33 | 38.41402 | 58.24465 | 34035 ft | 457 kts | 290° |
| 2026-04-30 01:34 | 38.43991 | 58.17075 | 34036 ft | 457 kts | 289° |
| 2026-04-30 01:34 | 38.46587 | 58.09676 | 34034 ft | 457 kts | 290° |
| 2026-04-30 01:35 | 38.49195 | 58.02288 | 34034 ft | 456 kts | 290° |
| 2026-04-30 01:35 | 38.51804 | 57.94900 | 34034 ft | 456 kts | 290° |
| 2026-04-30 01:36 | 38.54385 | 57.87571 | 34039 ft | 456 kts | 289° |
| 2026-04-30 01:36 | 38.56980 | 57.80179 | 34038 ft | 456 kts | 289° |
| 2026-04-30 01:37 | 38.59569 | 57.72790 | 34036 ft | 455 kts | 289° |
| 2026-04-30 01:37 | 38.62240 | 57.65440 | 34039 ft | 457 kts | 294° |
| 2026-04-30 01:38 | 38.65562 | 57.58457 | 34053 ft | 460 kts | 297° |
| 2026-04-30 01:38 | 38.68947 | 57.51496 | 34047 ft | 461 kts | 297° |
| 2026-04-30 01:39 | 38.72315 | 57.44508 | 34048 ft | 461 kts | 296° |
| 2026-04-30 01:39 | 38.75670 | 57.37497 | 34046 ft | 462 kts | 296° |
| 2026-04-30 01:40 | 38.79023 | 57.30466 | 34039 ft | 463 kts | 296° |
| 2026-04-30 01:40 | 38.82374 | 57.23422 | 34048 ft | 463 kts | 296° |
| 2026-04-30 01:41 | 38.85727 | 57.16363 | 34050 ft | 464 kts | 296° |
| 2026-04-30 01:41 | 38.89078 | 57.09291 | 34067 ft | 464 kts | 296° |
| 2026-04-30 01:42 | 38.92432 | 57.02197 | 34062 ft | 465 kts | 296° |
| 2026-04-30 01:42 | 38.95787 | 56.95086 | 34057 ft | 466 kts | 296° |
| 2026-04-30 01:43 | 38.99141 | 56.87961 | 34055 ft | 466 kts | 296° |
| 2026-04-30 01:43 | 39.02491 | 56.80830 | 34070 ft | 466 kts | 296° |
| 2026-04-30 01:44 | 39.05823 | 56.73720 | 34061 ft | 467 kts | 296° |
| 2026-04-30 01:44 | 39.09189 | 56.66521 | 34062 ft | 467 kts | 296° |
| 2026-04-30 01:45 | 39.12532 | 56.59355 | 34073 ft | 467 kts | 296° |
| 2026-04-30 01:45 | 39.15855 | 56.52214 | 34075 ft | 468 kts | 295° |
| 2026-04-30 01:46 | 39.19199 | 56.45014 | 34071 ft | 468 kts | 295° |
| 2026-04-30 01:46 | 39.22536 | 56.37811 | 34088 ft | 468 kts | 295° |
| 2026-04-30 01:47 | 39.25878 | 56.30582 | 34096 ft | 469 kts | 295° |
| 2026-04-30 01:47 | 39.29221 | 56.23333 | 34072 ft | 471 kts | 295° |
| 2026-04-30 01:48 | 39.32568 | 56.16061 | 34074 ft | 471 kts | 295° |
| 2026-04-30 01:48 | 39.35916 | 56.08768 | 34073 ft | 472 kts | 295° |
| 2026-04-30 01:49 | 39.39267 | 56.01450 | 34078 ft | 473 kts | 295° |
| 2026-04-30 01:49 | 39.42619 | 55.94115 | 34079 ft | 474 kts | 295° |
| 2026-04-30 01:50 | 39.45973 | 55.86758 | 34078 ft | 475 kts | 295° |
| 2026-04-30 01:50 | 39.49333 | 55.79375 | 34072 ft | 476 kts | 295° |
| 2026-04-30 01:51 | 39.52740 | 55.72010 | 34082 ft | 477 kts | 295° |
| 2026-04-30 01:51 | 39.56169 | 55.64639 | 34081 ft | 478 kts | 295° |
| 2026-04-30 01:52 | 39.59592 | 55.57245 | 34075 ft | 478 kts | 295° |
| 2026-04-30 01:52 | 39.63006 | 55.49838 | 34077 ft | 478 kts | 295° |
| 2026-04-30 01:53 | 39.66415 | 55.42428 | 34069 ft | 478 kts | 295° |
| 2026-04-30 01:53 | 39.69510 | 55.34845 | 34071 ft | 472 kts | 287° |
| 2026-04-30 01:54 | 39.71507 | 55.26826 | 34085 ft | 465 kts | 280° |
| 2026-04-30 01:54 | 39.73210 | 55.18714 | 34085 ft | 466 kts | 280° |
| 2026-04-30 01:55 | 39.74939 | 55.10600 | 34092 ft | 466 kts | 280° |
| 2026-04-30 01:55 | 39.76686 | 55.02479 | 34078 ft | 466 kts | 281° |
| 2026-04-30 01:56 | 39.78430 | 54.94358 | 34069 ft | 466 kts | 280° |
| 2026-04-30 01:56 | 39.80166 | 54.86236 | 34076 ft | 466 kts | 280° |
| 2026-04-30 01:57 | 39.81894 | 54.78118 | 34090 ft | 465 kts | 280° |
| 2026-04-30 01:57 | 39.83628 | 54.70003 | 34072 ft | 466 kts | 281° |
| 2026-04-30 01:58 | 39.85375 | 54.61886 | 34088 ft | 466 kts | 281° |
| 2026-04-30 01:58 | 39.87115 | 54.53756 | 34079 ft | 466 kts | 281° |
| 2026-04-30 01:59 | 39.89711 | 54.41541 | 34099 ft | 467 kts | 280° |
| 2026-04-30 02:00 | 39.91416 | 54.33371 | 34090 ft | 468 kts | 280° |
| 2026-04-30 02:00 | 39.93112 | 54.25189 | 34089 ft | 469 kts | 280° |
| 2026-04-30 02:01 | 39.94799 | 54.17035 | 34090 ft | 470 kts | 280° |
| 2026-04-30 02:01 | 39.96494 | 54.08814 | 34110 ft | 469 kts | 280° |
| 2026-04-30 02:02 | 39.98184 | 54.00596 | 34088 ft | 469 kts | 280° |
| 2026-04-30 02:02 | 39.99867 | 53.92373 | 34091 ft | 469 kts | 280° |
| 2026-04-30 02:03 | 40.01543 | 53.84157 | 34075 ft | 469 kts | 280° |
| 2026-04-30 02:03 | 40.03211 | 53.75939 | 34086 ft | 468 kts | 280° |
| 2026-04-30 02:04 | 40.04874 | 53.67717 | 34090 ft | 468 kts | 280° |
| 2026-04-30 02:04 | 40.06529 | 53.59504 | 34079 ft | 468 kts | 280° |
| 2026-04-30 02:05 | 40.08175 | 53.51300 | 34080 ft | 467 kts | 280° |
| 2026-04-30 02:05 | 40.09813 | 53.43103 | 34087 ft | 466 kts | 281° |
| 2026-04-30 02:06 | 40.11442 | 53.34922 | 34085 ft | 465 kts | 281° |
| 2026-04-30 02:06 | 40.13064 | 53.26741 | 34078 ft | 465 kts | 281° |
| 2026-04-30 02:07 | 40.14678 | 53.18564 | 34079 ft | 465 kts | 281° |
| 2026-04-30 02:07 | 40.16285 | 53.10390 | 34080 ft | 465 kts | 280° |
| 2026-04-30 02:08 | 40.17890 | 53.02198 | 34095 ft | 466 kts | 281° |
| 2026-04-30 02:08 | 40.19493 | 52.93978 | 34084 ft | 467 kts | 281° |
| 2026-04-30 02:09 | 40.21095 | 52.85731 | 34088 ft | 469 kts | 281° |
| 2026-04-30 02:09 | 40.22697 | 52.77452 | 34090 ft | 470 kts | 281° |
| 2026-04-30 02:10 | 40.24283 | 52.69220 | 34102 ft | 470 kts | 281° |
| 2026-04-30 02:10 | 40.25879 | 52.60908 | 34087 ft | 471 kts | 281° |
| 2026-04-30 02:11 | 40.27473 | 52.52591 | 34092 ft | 471 kts | 281° |
| 2026-04-30 02:11 | 40.29069 | 52.44274 | 34099 ft | 471 kts | 281° |
| 2026-04-30 02:12 | 40.30659 | 52.35957 | 34093 ft | 470 kts | 281° |
| 2026-04-30 02:12 | 40.31974 | 52.29048 | 34109 ft | 470 kts | 281° |
| 2026-04-30 02:13 | 40.33559 | 52.20686 | 34092 ft | 469 kts | 281° |
| 2026-04-30 02:13 | 40.35112 | 52.12452 | 34095 ft | 468 kts | 281° |
| 2026-04-30 02:14 | 40.36669 | 52.04168 | 34106 ft | 467 kts | 281° |
| 2026-04-30 02:14 | 40.38216 | 51.95897 | 34105 ft | 467 kts | 281° |
| 2026-04-30 02:15 | 40.39757 | 51.87620 | 34113 ft | 467 kts | 281° |
| 2026-04-30 02:15 | 40.41294 | 51.79338 | 34113 ft | 467 kts | 281° |
| 2026-04-30 02:16 | 40.42824 | 51.71052 | 34120 ft | 467 kts | 281° |
| 2026-04-30 02:16 | 40.44348 | 51.62760 | 34128 ft | 467 kts | 281° |
| 2026-04-30 02:17 | 40.45867 | 51.54469 | 34115 ft | 467 kts | 281° |
| 2026-04-30 02:17 | 40.47375 | 51.46182 | 34116 ft | 466 kts | 281° |
| 2026-04-30 02:18 | 40.48859 | 51.37901 | 34120 ft | 466 kts | 281° |
| 2026-04-30 02:18 | 40.50334 | 51.29617 | 34119 ft | 465 kts | 281° |
| 2026-04-30 02:19 | 40.51803 | 51.21336 | 34127 ft | 465 kts | 281° |
| 2026-04-30 02:19 | 40.53257 | 51.13117 | 34125 ft | 464 kts | 281° |
| 2026-04-30 02:20 | 40.54721 | 51.04804 | 34126 ft | 464 kts | 281° |
| 2026-04-30 02:20 | 40.56159 | 50.96601 | 34128 ft | 463 kts | 281° |
| 2026-04-30 02:21 | 40.57599 | 50.88352 | 34137 ft | 462 kts | 281° |
| 2026-04-30 02:21 | 40.59041 | 50.80051 | 34126 ft | 462 kts | 281° |
| 2026-04-30 02:22 | 40.60465 | 50.71817 | 34123 ft | 461 kts | 281° |
| 2026-04-30 02:22 | 40.61873 | 50.63637 | 34122 ft | 461 kts | 280° |
| 2026-04-30 02:23 | 40.63283 | 50.55408 | 34130 ft | 461 kts | 280° |
| 2026-04-30 02:23 | 40.64689 | 50.47168 | 34123 ft | 461 kts | 280° |
| 2026-04-30 02:24 | 40.66088 | 50.38927 | 34124 ft | 461 kts | 280° |
| 2026-04-30 02:24 | 40.67481 | 50.30690 | 34126 ft | 461 kts | 280° |
| 2026-04-30 02:25 | 40.68868 | 50.22448 | 34130 ft | 461 kts | 280° |
| 2026-04-30 02:25 | 40.70248 | 50.14205 | 34135 ft | 461 kts | 280° |
| 2026-04-30 02:26 | 40.71624 | 50.05951 | 34128 ft | 461 kts | 280° |
| 2026-04-30 02:26 | 40.72994 | 49.97690 | 34139 ft | 461 kts | 280° |
| 2026-04-30 02:27 | 40.74355 | 49.89449 | 34134 ft | 460 kts | 280° |
| 2026-04-30 02:27 | 40.75708 | 49.81218 | 34152 ft | 459 kts | 280° |
| 2026-04-30 02:28 | 40.77054 | 49.72993 | 34140 ft | 458 kts | 280° |
| 2026-04-30 02:28 | 40.78390 | 49.64785 | 34144 ft | 457 kts | 280° |
| 2026-04-30 02:29 | 40.79719 | 49.56581 | 34150 ft | 457 kts | 280° |
| 2026-04-30 02:29 | 40.81042 | 49.48379 | 34147 ft | 457 kts | 280° |
| 2026-04-30 02:30 | 40.82359 | 49.40170 | 34157 ft | 457 kts | 280° |
| 2026-04-30 02:30 | 40.83671 | 49.31956 | 34151 ft | 457 kts | 280° |
| 2026-04-30 02:31 | 40.84976 | 49.23745 | 34151 ft | 457 kts | 279° |
| 2026-04-30 02:31 | 40.86275 | 49.15534 | 34155 ft | 456 kts | 279° |
| 2026-04-30 02:32 | 40.87566 | 49.07334 | 34170 ft | 456 kts | 279° |
| 2026-04-30 02:32 | 40.88850 | 48.99134 | 34153 ft | 455 kts | 279° |
| 2026-04-30 02:33 | 40.90126 | 48.90947 | 34152 ft | 454 kts | 279° |
| 2026-04-30 02:33 | 40.91394 | 48.82772 | 34157 ft | 453 kts | 279° |
| 2026-04-30 02:34 | 40.92652 | 48.74614 | 34156 ft | 453 kts | 279° |
| 2026-04-30 02:34 | 40.93907 | 48.66451 | 34157 ft | 453 kts | 279° |
| 2026-04-30 02:35 | 40.95153 | 48.58295 | 34146 ft | 453 kts | 279° |
| 2026-04-30 02:35 | 40.96394 | 48.50127 | 34151 ft | 453 kts | 279° |
| 2026-04-30 02:36 | 40.97629 | 48.41967 | 34141 ft | 452 kts | 278° |
| 2026-04-30 02:36 | 40.98851 | 48.33847 | 34135 ft | 453 kts | 278° |
| 2026-04-30 02:37 | 41.00077 | 48.25654 | 34123 ft | 454 kts | 278° |
| 2026-04-30 02:37 | 41.01302 | 48.17436 | 34124 ft | 455 kts | 278° |
| 2026-04-30 02:38 | 41.02521 | 48.09216 | 34113 ft | 455 kts | 278° |
| 2026-04-30 02:38 | 41.03733 | 48.01001 | 34103 ft | 454 kts | 278° |
| 2026-04-30 02:39 | 41.04935 | 47.92797 | 34094 ft | 453 kts | 278° |
| 2026-04-30 02:39 | 41.06130 | 47.84612 | 34117 ft | 452 kts | 278° |
| 2026-04-30 02:40 | 41.07317 | 47.76433 | 34101 ft | 452 kts | 278° |
| 2026-04-30 02:40 | 41.08498 | 47.68256 | 34123 ft | 452 kts | 278° |
| 2026-04-30 02:41 | 41.09674 | 47.60077 | 34126 ft | 452 kts | 278° |
| 2026-04-30 02:41 | 41.10843 | 47.51901 | 34135 ft | 451 kts | 278° |
| 2026-04-30 02:42 | 41.12003 | 47.43729 | 34133 ft | 451 kts | 278° |
| 2026-04-30 02:42 | 41.13159 | 47.35558 | 34142 ft | 450 kts | 278° |
| 2026-04-30 02:43 | 41.14307 | 47.27392 | 34155 ft | 450 kts | 278° |
| 2026-04-30 02:43 | 41.15450 | 47.19224 | 34173 ft | 450 kts | 278° |
| 2026-04-30 02:44 | 41.16587 | 47.11050 | 34160 ft | 450 kts | 278° |
| 2026-04-30 02:44 | 41.17717 | 47.02883 | 34168 ft | 450 kts | 278° |
| 2026-04-30 02:45 | 41.18841 | 46.94715 | 34168 ft | 449 kts | 278° |
| 2026-04-30 02:45 | 41.19957 | 46.86556 | 34180 ft | 449 kts | 278° |
| 2026-04-30 02:46 | 41.21067 | 46.78403 | 34181 ft | 448 kts | 278° |
| 2026-04-30 02:46 | 41.22170 | 46.70260 | 34172 ft | 448 kts | 278° |
| 2026-04-30 02:47 | 41.23264 | 46.62131 | 34178 ft | 447 kts | 278° |
| 2026-04-30 02:47 | 41.24344 | 46.54064 | 34177 ft | 446 kts | 278° |
| 2026-04-30 02:48 | 41.25425 | 46.45943 | 34198 ft | 446 kts | 278° |
| 2026-04-30 02:48 | 41.26506 | 46.37770 | 34182 ft | 446 kts | 278° |
| 2026-04-30 02:49 | 41.27567 | 46.29713 | 34172 ft | 445 kts | 278° |
| 2026-04-30 02:49 | 41.28626 | 46.21623 | 34177 ft | 444 kts | 278° |
| 2026-04-30 02:50 | 41.29679 | 46.13531 | 34173 ft | 444 kts | 278° |
| 2026-04-30 02:50 | 41.30725 | 46.05449 | 34178 ft | 443 kts | 278° |
| 2026-04-30 02:51 | 41.31764 | 45.97377 | 34162 ft | 442 kts | 278° |
| 2026-04-30 02:51 | 41.32793 | 45.89326 | 34162 ft | 441 kts | 277° |
| 2026-04-30 02:52 | 41.33815 | 45.81289 | 34150 ft | 440 kts | 277° |
| 2026-04-30 02:52 | 41.34831 | 45.73255 | 34157 ft | 440 kts | 277° |
| 2026-04-30 02:53 | 41.35840 | 45.65228 | 34164 ft | 439 kts | 278° |
| 2026-04-30 02:53 | 41.36843 | 45.57206 | 34152 ft | 439 kts | 278° |
| 2026-04-30 02:54 | 41.37839 | 45.49188 | 34156 ft | 439 kts | 277° |
| 2026-04-30 02:54 | 41.38829 | 45.41177 | 34150 ft | 439 kts | 277° |
| 2026-04-30 02:55 | 41.39813 | 45.33155 | 34149 ft | 439 kts | 277° |
| 2026-04-30 02:55 | 41.40792 | 45.25139 | 34159 ft | 439 kts | 277° |
| 2026-04-30 02:56 | 41.41765 | 45.17114 | 34156 ft | 439 kts | 277° |
| 2026-04-30 02:56 | 41.42733 | 45.09090 | 34161 ft | 439 kts | 277° |
| 2026-04-30 02:57 | 41.43695 | 45.01062 | 34155 ft | 438 kts | 277° |
| 2026-04-30 02:57 | 41.44489 | 44.94398 | 34163 ft | 438 kts | 277° |
| 2026-04-30 02:58 | 41.45441 | 44.86373 | 34180 ft | 438 kts | 277° |
| 2026-04-30 02:58 | 41.46385 | 44.78357 | 34171 ft | 438 kts | 277° |
| 2026-04-30 02:59 | 41.47323 | 44.70346 | 34171 ft | 437 kts | 277° |
| 2026-04-30 02:59 | 41.48254 | 44.62338 | 34176 ft | 437 kts | 277° |
| 2026-04-30 03:00 | 41.49180 | 44.54334 | 34179 ft | 437 kts | 277° |
| 2026-04-30 03:00 | 41.50098 | 44.46339 | 34187 ft | 436 kts | 277° |
| 2026-04-30 03:01 | 41.51012 | 44.38332 | 34187 ft | 436 kts | 277° |
| 2026-04-30 03:01 | 41.51921 | 44.30318 | 34171 ft | 437 kts | 277° |
| 2026-04-30 03:02 | 41.52825 | 44.22306 | 34158 ft | 437 kts | 277° |
| 2026-04-30 03:02 | 41.53722 | 44.14288 | 34182 ft | 437 kts | 277° |
| 2026-04-30 03:03 | 41.54615 | 44.06262 | 34152 ft | 437 kts | 277° |
| 2026-04-30 03:03 | 41.55942 | 43.94239 | 34137 ft | 437 kts | 276° |
| 2026-04-30 03:04 | 41.56820 | 43.86218 | 34132 ft | 436 kts | 276° |
| 2026-04-30 03:04 | 41.57691 | 43.78206 | 34155 ft | 435 kts | 277° |
| 2026-04-30 03:05 | 41.58556 | 43.70198 | 34141 ft | 436 kts | 276° |
| 2026-04-30 03:05 | 41.59417 | 43.62172 | 34138 ft | 437 kts | 276° |
| 2026-04-30 03:06 | 41.60273 | 43.54138 | 34153 ft | 437 kts | 276° |
| 2026-04-30 03:06 | 41.61117 | 43.46159 | 34152 ft | 437 kts | 276° |
| 2026-04-30 03:07 | 41.61962 | 43.38129 | 34176 ft | 437 kts | 276° |
| 2026-04-30 03:07 | 41.62800 | 43.30094 | 34172 ft | 437 kts | 277° |
| 2026-04-30 03:08 | 41.63634 | 43.22058 | 34180 ft | 436 kts | 276° |
| 2026-04-30 03:08 | 41.64459 | 43.14033 | 34171 ft | 435 kts | 276° |
| 2026-04-30 03:09 | 41.65276 | 43.06041 | 34164 ft | 434 kts | 276° |
| 2026-04-30 03:09 | 41.66087 | 42.98065 | 34191 ft | 432 kts | 277° |
| 2026-04-30 03:10 | 41.66878 | 42.90113 | 34169 ft | 431 kts | 275° |
| 2026-04-30 03:10 | 41.67004 | 42.82127 | 34166 ft | 429 kts | 266° |
| 2026-04-30 03:11 | 41.66352 | 42.74193 | 34157 ft | 429 kts | 264° |
| 2026-04-30 03:11 | 41.65672 | 42.66273 | 34151 ft | 429 kts | 264° |
| 2026-04-30 03:12 | 41.65002 | 42.58361 | 34143 ft | 428 kts | 264° |
| 2026-04-30 03:12 | 41.64333 | 42.50456 | 34169 ft | 428 kts | 264° |
| 2026-04-30 03:13 | 41.63659 | 42.42533 | 34152 ft | 429 kts | 264° |
| 2026-04-30 03:13 | 41.62979 | 42.34601 | 34147 ft | 429 kts | 264° |
| 2026-04-30 03:14 | 41.62293 | 42.26672 | 34156 ft | 430 kts | 264° |
| 2026-04-30 03:14 | 41.61600 | 42.18743 | 34163 ft | 429 kts | 264° |
| 2026-04-30 03:15 | 41.60904 | 42.10821 | 34171 ft | 429 kts | 264° |
| 2026-04-30 03:15 | 41.60202 | 42.02910 | 34172 ft | 429 kts | 264° |
| 2026-04-30 03:16 | 41.59493 | 41.94980 | 34203 ft | 430 kts | 264° |
| 2026-04-30 03:16 | 41.58779 | 41.87049 | 34183 ft | 430 kts | 264° |
| 2026-04-30 03:17 | 41.58061 | 41.79134 | 34176 ft | 429 kts | 264° |
| 2026-04-30 03:17 | 41.57337 | 41.71225 | 34182 ft | 429 kts | 264° |
| 2026-04-30 03:18 | 41.56609 | 41.63322 | 34182 ft | 429 kts | 264° |
| 2026-04-30 03:18 | 41.55877 | 41.55424 | 34196 ft | 428 kts | 264° |
| 2026-04-30 03:19 | 41.55163 | 41.47536 | 34174 ft | 427 kts | 266° |
| 2026-04-30 03:19 | 41.55161 | 41.39628 | 34186 ft | 426 kts | 276° |
| 2026-04-30 03:20 | 41.55654 | 41.31804 | 34177 ft | 425 kts | 275° |
| 2026-04-30 03:20 | 41.56114 | 41.23949 | 34179 ft | 424 kts | 275° |
| 2026-04-30 03:21 | 41.56558 | 41.16099 | 34188 ft | 424 kts | 275° |
| 2026-04-30 03:21 | 41.56996 | 41.08258 | 34190 ft | 423 kts | 275° |
| 2026-04-30 03:22 | 41.57429 | 41.00409 | 34360 ft | 425 kts | 275° |
| 2026-04-30 03:22 | 41.57644 | 40.96470 | 34663 ft | 424 kts | 275° |
| 2026-04-30 03:22 | 41.57857 | 40.92556 | 34930 ft | 423 kts | 275° |
| 2026-04-30 03:23 | 41.58069 | 40.88630 | 35165 ft | 424 kts | 275° |
| 2026-04-30 03:23 | 41.58280 | 40.84703 | 35367 ft | 424 kts | 275° |
| 2026-04-30 03:23 | 41.58490 | 40.80768 | 35562 ft | 425 kts | 275° |
| 2026-04-30 03:23 | 41.58698 | 40.76829 | 35779 ft | 425 kts | 274° |
| 2026-04-30 03:24 | 41.58906 | 40.72888 | 36029 ft | 425 kts | 274° |
| 2026-04-30 03:24 | 41.59113 | 40.68941 | 36096 ft | 427 kts | 274° |
| 2026-04-30 03:24 | 41.59523 | 40.61010 | 36186 ft | 428 kts | 274° |
| 2026-04-30 03:25 | 41.59923 | 40.53105 | 36179 ft | 425 kts | 274° |
| 2026-04-30 03:25 | 41.60314 | 40.45261 | 36182 ft | 422 kts | 274° |
| 2026-04-30 03:26 | 41.60699 | 40.37442 | 36185 ft | 421 kts | 274° |
| 2026-04-30 03:26 | 41.61078 | 40.29638 | 36187 ft | 421 kts | 274° |
| 2026-04-30 03:27 | 41.61453 | 40.21812 | 36187 ft | 423 kts | 274° |
| 2026-04-30 03:27 | 41.61824 | 40.13964 | 36177 ft | 424 kts | 274° |
| 2026-04-30 03:28 | 41.62191 | 40.06080 | 36187 ft | 425 kts | 274° |
| 2026-04-30 03:28 | 41.62551 | 39.98223 | 36186 ft | 427 kts | 274° |
| 2026-04-30 03:29 | 41.62912 | 39.90247 | 36187 ft | 428 kts | 274° |
| 2026-04-30 03:29 | 41.63265 | 39.82312 | 36188 ft | 428 kts | 274° |
| 2026-04-30 03:30 | 41.63610 | 39.74429 | 36193 ft | 427 kts | 274° |
| 2026-04-30 03:30 | 41.63952 | 39.66501 | 36186 ft | 427 kts | 274° |
| 2026-04-30 03:31 | 41.64288 | 39.58593 | 36185 ft | 426 kts | 274° |
| 2026-04-30 03:31 | 41.64620 | 39.50705 | 36177 ft | 425 kts | 274° |
| 2026-04-30 03:32 | 41.64949 | 39.42829 | 36185 ft | 424 kts | 274° |
| 2026-04-30 03:32 | 41.65272 | 39.34958 | 36199 ft | 424 kts | 274° |
| 2026-04-30 03:33 | 41.65590 | 39.27088 | 36187 ft | 424 kts | 274° |
| 2026-04-30 03:33 | 41.65902 | 39.19220 | 36186 ft | 424 kts | 274° |
| 2026-04-30 03:34 | 41.66208 | 39.11354 | 36181 ft | 423 kts | 274° |
| 2026-04-30 03:34 | 41.66507 | 39.03539 | 36183 ft | 423 kts | 274° |
| 2026-04-30 03:35 | 41.66803 | 38.95678 | 36197 ft | 423 kts | 274° |
| 2026-04-30 03:35 | 41.67093 | 38.87816 | 36183 ft | 423 kts | 273° |
| 2026-04-30 03:36 | 41.67380 | 38.79898 | 36182 ft | 423 kts | 273° |
| 2026-04-30 03:36 | 41.67658 | 38.72090 | 36182 ft | 423 kts | 273° |
| 2026-04-30 03:37 | 41.67932 | 38.64233 | 36185 ft | 423 kts | 273° |
| 2026-04-30 03:37 | 41.68200 | 38.56382 | 36182 ft | 423 kts | 273° |
| 2026-04-30 03:38 | 41.68463 | 38.48528 | 36183 ft | 423 kts | 273° |
| 2026-04-30 03:38 | 41.68721 | 38.40678 | 36179 ft | 422 kts | 273° |
| 2026-04-30 03:39 | 41.68973 | 38.32827 | 36177 ft | 422 kts | 273° |
| 2026-04-30 03:39 | 41.69220 | 38.24985 | 36179 ft | 422 kts | 273° |
| 2026-04-30 03:40 | 41.69462 | 38.17136 | 36182 ft | 422 kts | 273° |
| 2026-04-30 03:40 | 41.69698 | 38.09276 | 36185 ft | 423 kts | 273° |
| 2026-04-30 03:41 | 41.69929 | 38.01423 | 36179 ft | 423 kts | 273° |
| 2026-04-30 03:41 | 41.70155 | 37.93562 | 36177 ft | 422 kts | 273° |
| 2026-04-30 03:42 | 41.70374 | 37.85763 | 36177 ft | 422 kts | 273° |
| 2026-04-30 03:42 | 41.70589 | 37.77908 | 36164 ft | 422 kts | 273° |
| 2026-04-30 03:43 | 41.70799 | 37.70068 | 36179 ft | 422 kts | 273° |
| 2026-04-30 03:43 | 41.70970 | 37.63485 | 36178 ft | 422 kts | 273° |
| 2026-04-30 03:44 | 41.71194 | 37.54364 | 36177 ft | 422 kts | 272° |
| 2026-04-30 03:44 | 41.71352 | 37.47780 | 36170 ft | 422 kts | 272° |
| 2026-04-30 03:45 | 41.71535 | 37.39924 | 36176 ft | 423 kts | 272° |
| 2026-04-30 03:45 | 41.71714 | 37.32062 | 36174 ft | 423 kts | 272° |
| 2026-04-30 03:46 | 41.71887 | 37.24196 | 36175 ft | 423 kts | 272° |
| 2026-04-30 03:46 | 41.72056 | 37.16331 | 36169 ft | 422 kts | 272° |
| 2026-04-30 03:47 | 41.72217 | 37.08531 | 36173 ft | 422 kts | 272° |
| 2026-04-30 03:47 | 41.72374 | 37.00678 | 36173 ft | 422 kts | 272° |
| 2026-04-30 03:48 | 41.72526 | 36.92820 | 36173 ft | 422 kts | 272° |
| 2026-04-30 03:48 | 41.72673 | 36.84969 | 36175 ft | 422 kts | 272° |
| 2026-04-30 03:49 | 41.72814 | 36.77112 | 36171 ft | 422 kts | 272° |
| 2026-04-30 03:49 | 41.72950 | 36.69262 | 36172 ft | 422 kts | 272° |
| 2026-04-30 03:50 | 41.73080 | 36.61410 | 36172 ft | 422 kts | 272° |
| 2026-04-30 03:50 | 41.73205 | 36.53568 | 36168 ft | 422 kts | 272° |
| 2026-04-30 03:51 | 41.73325 | 36.45721 | 36175 ft | 422 kts | 272° |
| 2026-04-30 03:51 | 41.73439 | 36.37869 | 36170 ft | 422 kts | 272° |
| 2026-04-30 03:52 | 41.73548 | 36.30013 | 36170 ft | 422 kts | 272° |
| 2026-04-30 03:52 | 41.73652 | 36.22159 | 36173 ft | 422 kts | 272° |
| 2026-04-30 03:53 | 41.73751 | 36.14298 | 36170 ft | 422 kts | 272° |
| 2026-04-30 03:53 | 41.73844 | 36.06443 | 36168 ft | 422 kts | 272° |
| 2026-04-30 03:54 | 41.73931 | 35.98638 | 36146 ft | 422 kts | 272° |
| 2026-04-30 03:54 | 41.74013 | 35.90781 | 36158 ft | 422 kts | 272° |
| 2026-04-30 03:55 | 41.74090 | 35.82924 | 36162 ft | 422 kts | 272° |
| 2026-04-30 03:55 | 41.74162 | 35.75057 | 36161 ft | 423 kts | 272° |
| 2026-04-30 03:56 | 41.74229 | 35.67185 | 36161 ft | 423 kts | 272° |
| 2026-04-30 03:56 | 41.74290 | 35.59306 | 36166 ft | 423 kts | 272° |
| 2026-04-30 03:57 | 41.74346 | 35.51430 | 36158 ft | 423 kts | 272° |
| 2026-04-30 03:57 | 41.74396 | 35.43562 | 36159 ft | 423 kts | 272° |
| 2026-04-30 03:58 | 41.74441 | 35.35695 | 36156 ft | 422 kts | 271° |
| 2026-04-30 03:58 | 41.74480 | 35.27843 | 36168 ft | 422 kts | 271° |
| 2026-04-30 03:59 | 41.74515 | 35.19971 | 36166 ft | 423 kts | 271° |
| 2026-04-30 03:59 | 41.74544 | 35.12092 | 36169 ft | 423 kts | 271° |
| 2026-04-30 04:00 | 41.74567 | 35.04213 | 36166 ft | 423 kts | 271° |
| 2026-04-30 04:00 | 41.74585 | 34.96329 | 36177 ft | 424 kts | 271° |
| 2026-04-30 04:01 | 41.74598 | 34.88443 | 36170 ft | 423 kts | 271° |
| 2026-04-30 04:01 | 41.74606 | 34.80553 | 36165 ft | 424 kts | 271° |
| 2026-04-30 04:02 | 41.74609 | 34.72659 | 36171 ft | 424 kts | 271° |
| 2026-04-30 04:02 | 41.74621 | 34.64769 | 36168 ft | 424 kts | 273° |
| 2026-04-30 04:03 | 41.75365 | 34.56956 | 36161 ft | 423 kts | 281° |
| 2026-04-30 04:03 | 41.76919 | 34.49359 | 36168 ft | 423 kts | 287° |
| 2026-04-30 04:04 | 41.78709 | 34.41834 | 36173 ft | 424 kts | 287° |
| 2026-04-30 04:04 | 41.80483 | 34.34307 | 36171 ft | 424 kts | 287° |
| 2026-04-30 04:05 | 41.82241 | 34.26763 | 36159 ft | 424 kts | 286° |
| 2026-04-30 04:05 | 41.83988 | 34.19215 | 36156 ft | 424 kts | 286° |
| 2026-04-30 04:06 | 41.85729 | 34.11669 | 36170 ft | 423 kts | 286° |
| 2026-04-30 04:06 | 41.87463 | 34.04124 | 36166 ft | 423 kts | 286° |
| 2026-04-30 04:07 | 41.89182 | 33.96626 | 36158 ft | 423 kts | 286° |
| 2026-04-30 04:08 | 41.91760 | 33.85330 | 36154 ft | 422 kts | 286° |
| 2026-04-30 04:08 | 41.93468 | 33.77815 | 36166 ft | 420 kts | 285° |
| 2026-04-30 04:09 | 41.94526 | 33.70111 | 36170 ft | 420 kts | 276° |
| 2026-04-30 04:09 | 41.94673 | 33.62270 | 36164 ft | 421 kts | 268° |
| 2026-04-30 04:10 | 41.94208 | 33.54425 | 36153 ft | 421 kts | 266° |
| 2026-04-30 04:10 | 41.93709 | 33.46570 | 36156 ft | 422 kts | 267° |
| 2026-04-30 04:11 | 41.93223 | 33.38701 | 36164 ft | 423 kts | 267° |
| 2026-04-30 04:11 | 41.92746 | 33.30819 | 36153 ft | 424 kts | 267° |
| 2026-04-30 04:12 | 41.92266 | 33.22942 | 36145 ft | 423 kts | 267° |
| 2026-04-30 04:12 | 41.91781 | 33.15065 | 36146 ft | 422 kts | 267° |
| 2026-04-30 04:13 | 41.91292 | 33.07211 | 36125 ft | 423 kts | 267° |
| 2026-04-30 04:13 | 41.90797 | 32.99354 | 36140 ft | 422 kts | 266° |
| 2026-04-30 04:14 | 41.90297 | 32.91492 | 36140 ft | 423 kts | 266° |
| 2026-04-30 04:14 | 41.89791 | 32.83633 | 36143 ft | 422 kts | 266° |
| 2026-04-30 04:15 | 41.89283 | 32.75831 | 36138 ft | 422 kts | 266° |
| 2026-04-30 04:15 | 41.88767 | 32.67981 | 36141 ft | 422 kts | 266° |
| 2026-04-30 04:16 | 41.88246 | 32.60129 | 36141 ft | 422 kts | 266° |
| 2026-04-30 04:16 | 41.87737 | 32.52278 | 36152 ft | 422 kts | 269° |
| 2026-04-30 04:17 | 41.88104 | 32.44453 | 36146 ft | 420 kts | 278° |
| 2026-04-30 04:17 | 41.89399 | 32.36817 | 36141 ft | 420 kts | 287° |
| 2026-04-30 04:18 | 41.91242 | 32.29374 | 36142 ft | 420 kts | 287° |
| 2026-04-30 04:18 | 41.93038 | 32.21903 | 36137 ft | 420 kts | 287° |
| 2026-04-30 04:19 | 41.94812 | 32.14424 | 36142 ft | 420 kts | 287° |
| 2026-04-30 04:19 | 41.96583 | 32.06938 | 36142 ft | 420 kts | 287° |
| 2026-04-30 04:20 | 41.98350 | 31.99449 | 36143 ft | 421 kts | 287° |
| 2026-04-30 04:20 | 42.00114 | 31.91955 | 36146 ft | 421 kts | 287° |
| 2026-04-30 04:21 | 42.01874 | 31.84449 | 36150 ft | 421 kts | 286° |
| 2026-04-30 04:21 | 42.03626 | 31.76946 | 36147 ft | 421 kts | 286° |
| 2026-04-30 04:22 | 42.05374 | 31.69435 | 36146 ft | 421 kts | 286° |
| 2026-04-30 04:22 | 42.07118 | 31.61918 | 36150 ft | 421 kts | 286° |
| 2026-04-30 04:23 | 42.08856 | 31.54399 | 36157 ft | 421 kts | 286° |
| 2026-04-30 04:23 | 42.10581 | 31.46920 | 36152 ft | 421 kts | 286° |
| 2026-04-30 04:24 | 42.12308 | 31.39399 | 36153 ft | 420 kts | 286° |
| 2026-04-30 04:24 | 42.14036 | 31.31874 | 36157 ft | 420 kts | 286° |
| 2026-04-30 04:25 | 42.15760 | 31.24356 | 36165 ft | 420 kts | 286° |
| 2026-04-30 04:25 | 42.17478 | 31.16834 | 36160 ft | 420 kts | 286° |
| 2026-04-30 04:26 | 42.19189 | 31.09312 | 36159 ft | 420 kts | 286° |
| 2026-04-30 04:26 | 42.20897 | 31.01780 | 36161 ft | 420 kts | 285° |
| 2026-04-30 04:27 | 42.22598 | 30.94249 | 36174 ft | 420 kts | 285° |
| 2026-04-30 04:27 | 42.24296 | 30.86710 | 36167 ft | 420 kts | 285° |
| 2026-04-30 04:28 | 42.25990 | 30.79160 | 36166 ft | 420 kts | 285° |
| 2026-04-30 04:28 | 42.27679 | 30.71610 | 36166 ft | 420 kts | 285° |
| 2026-04-30 04:29 | 42.29362 | 30.64058 | 36166 ft | 420 kts | 285° |
| 2026-04-30 04:29 | 42.31040 | 30.56502 | 36168 ft | 420 kts | 285° |
| 2026-04-30 04:30 | 42.32712 | 30.48945 | 36170 ft | 420 kts | 285° |
| 2026-04-30 04:30 | 42.34381 | 30.41379 | 36175 ft | 420 kts | 285° |
| 2026-04-30 04:31 | 42.35761 | 30.35100 | 36179 ft | 420 kts | 285° |
| 2026-04-30 04:31 | 42.37418 | 30.27536 | 36181 ft | 420 kts | 285° |
| 2026-04-30 04:32 | 42.39072 | 30.19961 | 36175 ft | 420 kts | 285° |
| 2026-04-30 04:32 | 42.40721 | 30.12382 | 36177 ft | 420 kts | 285° |
| 2026-04-30 04:33 | 42.42366 | 30.04793 | 36179 ft | 421 kts | 285° |
| 2026-04-30 04:33 | 42.44009 | 29.97192 | 36187 ft | 421 kts | 285° |
| 2026-04-30 04:34 | 42.45896 | 29.89681 | 36187 ft | 423 kts | 292° |
| 2026-04-30 04:34 | 42.48624 | 29.82603 | 36184 ft | 425 kts | 298° |
| 2026-04-30 04:35 | 42.52031 | 29.76010 | 36182 ft | 428 kts | 302° |
| 2026-04-30 04:35 | 42.55569 | 29.69528 | 36197 ft | 428 kts | 303° |
| 2026-04-30 04:36 | 42.59098 | 29.63033 | 36192 ft | 427 kts | 302° |
| 2026-04-30 04:36 | 42.62578 | 29.56569 | 36186 ft | 427 kts | 302° |
| 2026-04-30 04:37 | 42.66091 | 29.50009 | 36188 ft | 426 kts | 302° |
| 2026-04-30 04:37 | 42.69544 | 29.43540 | 36206 ft | 426 kts | 302° |
| 2026-04-30 04:38 | 42.73018 | 29.37019 | 36198 ft | 426 kts | 302° |
| 2026-04-30 04:38 | 42.76494 | 29.30481 | 36195 ft | 426 kts | 302° |
| 2026-04-30 04:39 | 42.79966 | 29.23936 | 36192 ft | 426 kts | 302° |
| 2026-04-30 04:39 | 42.83432 | 29.17387 | 36198 ft | 426 kts | 302° |
| 2026-04-30 04:40 | 42.86899 | 29.10823 | 36202 ft | 426 kts | 302° |
| 2026-04-30 04:40 | 42.90358 | 29.04258 | 36199 ft | 427 kts | 302° |
| 2026-04-30 04:41 | 42.93821 | 28.97673 | 36198 ft | 427 kts | 302° |
| 2026-04-30 04:41 | 42.97275 | 28.91089 | 36210 ft | 427 kts | 302° |
| 2026-04-30 04:42 | 43.00730 | 28.84489 | 36200 ft | 427 kts | 302° |
| 2026-04-30 04:42 | 43.04176 | 28.77892 | 36203 ft | 426 kts | 302° |
| 2026-04-30 04:43 | 43.07591 | 28.71340 | 36205 ft | 426 kts | 302° |
| 2026-04-30 04:43 | 43.11021 | 28.64745 | 36210 ft | 425 kts | 302° |
| 2026-04-30 04:44 | 43.14446 | 28.58143 | 36213 ft | 425 kts | 302° |
| 2026-04-30 04:44 | 43.17862 | 28.51545 | 36212 ft | 425 kts | 302° |
| 2026-04-30 04:45 | 43.21272 | 28.44943 | 36209 ft | 424 kts | 302° |
| 2026-04-30 04:45 | 43.24678 | 28.38334 | 36200 ft | 424 kts | 302° |
| 2026-04-30 04:46 | 43.28080 | 28.31718 | 36202 ft | 424 kts | 301° |
| 2026-04-30 04:46 | 43.31477 | 28.25099 | 36215 ft | 424 kts | 301° |
| 2026-04-30 04:47 | 43.34874 | 28.18462 | 36201 ft | 424 kts | 301° |
| 2026-04-30 04:47 | 43.38269 | 28.11816 | 36222 ft | 425 kts | 301° |
| 2026-04-30 04:48 | 43.41659 | 28.05166 | 36210 ft | 424 kts | 301° |
| 2026-04-30 04:48 | 43.45041 | 27.98516 | 36194 ft | 424 kts | 301° |
| 2026-04-30 04:49 | 43.48414 | 27.91867 | 36203 ft | 423 kts | 301° |
| 2026-04-30 04:49 | 43.51769 | 27.85239 | 36198 ft | 422 kts | 301° |
| 2026-04-30 04:50 | 43.55124 | 27.78595 | 36200 ft | 422 kts | 301° |
| 2026-04-30 04:50 | 43.58380 | 27.72135 | 36192 ft | 422 kts | 301° |
| 2026-04-30 04:51 | 43.61725 | 27.65482 | 36198 ft | 422 kts | 301° |
| 2026-04-30 04:51 | 43.65065 | 27.58825 | 36207 ft | 422 kts | 301° |
| 2026-04-30 04:52 | 43.68401 | 27.52161 | 36195 ft | 422 kts | 301° |
| 2026-04-30 04:52 | 43.71729 | 27.45497 | 36190 ft | 421 kts | 301° |
| 2026-04-30 04:53 | 43.75054 | 27.38823 | 36198 ft | 421 kts | 301° |
| 2026-04-30 04:53 | 43.78378 | 27.32137 | 36203 ft | 422 kts | 300° |
| 2026-04-30 04:54 | 43.81700 | 27.25440 | 36203 ft | 422 kts | 300° |
| 2026-04-30 04:54 | 43.84995 | 27.18781 | 36195 ft | 422 kts | 300° |
| 2026-04-30 04:55 | 43.88304 | 27.12079 | 36196 ft | 421 kts | 300° |
| 2026-04-30 04:55 | 43.91604 | 27.05382 | 36198 ft | 421 kts | 300° |
| 2026-04-30 04:56 | 43.94901 | 26.98672 | 36199 ft | 421 kts | 300° |
| 2026-04-30 04:56 | 43.98196 | 26.91953 | 36211 ft | 421 kts | 300° |
| 2026-04-30 04:57 | 44.01487 | 26.85225 | 36211 ft | 421 kts | 300° |
| 2026-04-30 04:57 | 44.04779 | 26.78480 | 36212 ft | 422 kts | 300° |
| 2026-04-30 04:58 | 44.08073 | 26.71716 | 36209 ft | 422 kts | 300° |
| 2026-04-30 04:58 | 44.11361 | 26.64948 | 36210 ft | 422 kts | 300° |
| 2026-04-30 04:59 | 44.14648 | 26.58167 | 36208 ft | 422 kts | 300° |
| 2026-04-30 04:59 | 44.17924 | 26.51393 | 36212 ft | 422 kts | 300° |
| 2026-04-30 05:00 | 44.21194 | 26.44614 | 36218 ft | 421 kts | 300° |
| 2026-04-30 05:00 | 44.24462 | 26.37825 | 36244 ft | 422 kts | 300° |
| 2026-04-30 05:01 | 44.27703 | 26.31075 | 36232 ft | 421 kts | 300° |
| 2026-04-30 05:01 | 44.30959 | 26.24279 | 36241 ft | 421 kts | 299° |
| 2026-04-30 05:02 | 44.34238 | 26.17419 | 36240 ft | 422 kts | 299° |
| 2026-04-30 05:02 | 44.37473 | 26.10634 | 36236 ft | 422 kts | 299° |
| 2026-04-30 05:03 | 44.40726 | 26.03796 | 36243 ft | 423 kts | 299° |
| 2026-04-30 05:03 | 44.43977 | 25.96946 | 36249 ft | 423 kts | 299° |
| 2026-04-30 05:04 | 44.47227 | 25.90080 | 36239 ft | 423 kts | 299° |
| 2026-04-30 05:04 | 44.50478 | 25.83198 | 36254 ft | 424 kts | 299° |
| 2026-04-30 05:05 | 44.53726 | 25.76305 | 36246 ft | 424 kts | 299° |
| 2026-04-30 05:05 | 44.56975 | 25.69394 | 36243 ft | 424 kts | 299° |
| 2026-04-30 05:06 | 44.61848 | 25.58993 | 36234 ft | 426 kts | 299° |
| 2026-04-30 05:06 | 44.65106 | 25.52021 | 36223 ft | 427 kts | 299° |
| 2026-04-30 05:07 | 44.68364 | 25.45030 | 36225 ft | 429 kts | 299° |
| 2026-04-30 05:07 | 44.71627 | 25.38011 | 36225 ft | 430 kts | 299° |
| 2026-04-30 05:08 | 44.74898 | 25.30961 | 36219 ft | 431 kts | 299° |
| 2026-04-30 05:08 | 44.78150 | 25.23933 | 36217 ft | 432 kts | 299° |
| 2026-04-30 05:09 | 44.81424 | 25.16839 | 36212 ft | 432 kts | 299° |
| 2026-04-30 05:09 | 44.84698 | 25.09729 | 36224 ft | 433 kts | 299° |
| 2026-04-30 05:10 | 44.87971 | 25.02602 | 36217 ft | 434 kts | 299° |
| 2026-04-30 05:10 | 44.91250 | 24.95443 | 36212 ft | 435 kts | 299° |
| 2026-04-30 05:11 | 44.94529 | 24.88268 | 36213 ft | 435 kts | 299° |
| 2026-04-30 05:11 | 44.97802 | 24.81088 | 36225 ft | 434 kts | 299° |
| 2026-04-30 05:12 | 45.01071 | 24.73898 | 36220 ft | 435 kts | 299° |
| 2026-04-30 05:12 | 45.04346 | 24.66678 | 36198 ft | 437 kts | 299° |
| 2026-04-30 05:13 | 45.07619 | 24.59442 | 36196 ft | 437 kts | 299° |
| 2026-04-30 05:13 | 45.10893 | 24.52186 | 36209 ft | 438 kts | 299° |
| 2026-04-30 05:14 | 45.14177 | 24.44887 | 36219 ft | 440 kts | 300° |
| 2026-04-30 05:14 | 45.17473 | 24.37545 | 36218 ft | 443 kts | 300° |
| 2026-04-30 05:15 | 45.20779 | 24.30163 | 36220 ft | 444 kts | 300° |
| 2026-04-30 05:15 | 45.24066 | 24.22804 | 36215 ft | 445 kts | 300° |
| 2026-04-30 05:16 | 45.27375 | 24.15375 | 36224 ft | 445 kts | 300° |
| 2026-04-30 05:16 | 45.30678 | 24.07943 | 36222 ft | 444 kts | 300° |
| 2026-04-30 05:17 | 45.33969 | 24.00516 | 36222 ft | 444 kts | 300° |
| 2026-04-30 05:17 | 45.37251 | 23.93089 | 36219 ft | 443 kts | 300° |
| 2026-04-30 05:18 | 45.40525 | 23.85662 | 36228 ft | 443 kts | 300° |
| 2026-04-30 05:18 | 45.43788 | 23.78238 | 36225 ft | 442 kts | 300° |
| 2026-04-30 05:19 | 45.47048 | 23.70804 | 36229 ft | 442 kts | 300° |
| 2026-04-30 05:19 | 45.50300 | 23.63367 | 36229 ft | 442 kts | 300° |
| 2026-04-30 05:20 | 45.53001 | 23.57175 | 36239 ft | 442 kts | 300° |
| 2026-04-30 05:20 | 45.56246 | 23.49721 | 36239 ft | 442 kts | 300° |
| 2026-04-30 05:21 | 45.59488 | 23.42251 | 36235 ft | 443 kts | 300° |
| 2026-04-30 05:21 | 45.62728 | 23.34765 | 36239 ft | 443 kts | 300° |
| 2026-04-30 05:22 | 45.65967 | 23.27264 | 36244 ft | 444 kts | 300° |
| 2026-04-30 05:22 | 45.69209 | 23.19736 | 36243 ft | 444 kts | 300° |
| 2026-04-30 05:23 | 45.72448 | 23.12194 | 36248 ft | 445 kts | 299° |
| 2026-04-30 05:23 | 45.75685 | 23.04634 | 36244 ft | 446 kts | 299° |
| 2026-04-30 05:24 | 45.78924 | 22.97050 | 36246 ft | 446 kts | 300° |
| 2026-04-30 05:24 | 45.82161 | 22.89450 | 36250 ft | 447 kts | 300° |
| 2026-04-30 05:25 | 45.85394 | 22.81843 | 36252 ft | 447 kts | 300° |
| 2026-04-30 05:25 | 45.88622 | 22.74222 | 36245 ft | 447 kts | 299° |
| 2026-04-30 05:26 | 45.91849 | 22.66584 | 36241 ft | 447 kts | 300° |
| 2026-04-30 05:26 | 45.95073 | 22.58932 | 36262 ft | 448 kts | 300° |
| 2026-04-30 05:27 | 45.98297 | 22.51258 | 36254 ft | 449 kts | 300° |
| 2026-04-30 05:27 | 46.01521 | 22.43565 | 36252 ft | 450 kts | 300° |
| 2026-04-30 05:28 | 46.04747 | 22.35845 | 36234 ft | 450 kts | 300° |
| 2026-04-30 05:28 | 46.07968 | 22.28113 | 36247 ft | 451 kts | 300° |
| 2026-04-30 05:29 | 46.11172 | 22.20403 | 36259 ft | 452 kts | 300° |
| 2026-04-30 05:29 | 46.14396 | 22.12624 | 36258 ft | 452 kts | 300° |
| 2026-04-30 05:30 | 46.17615 | 22.04833 | 36256 ft | 453 kts | 300° |
| 2026-04-30 05:30 | 46.20834 | 21.97020 | 36247 ft | 453 kts | 300° |
| 2026-04-30 05:31 | 46.24055 | 21.89182 | 36261 ft | 454 kts | 300° |
| 2026-04-30 05:31 | 46.27273 | 21.81327 | 36258 ft | 455 kts | 300° |
| 2026-04-30 05:32 | 46.30492 | 21.73449 | 36268 ft | 455 kts | 300° |
| 2026-04-30 05:32 | 46.33706 | 21.65558 | 36263 ft | 456 kts | 300° |
| 2026-04-30 05:33 | 46.36922 | 21.57640 | 36279 ft | 457 kts | 300° |
| 2026-04-30 05:33 | 46.40141 | 21.49694 | 36284 ft | 458 kts | 300° |
| 2026-04-30 05:34 | 46.43363 | 21.41715 | 36278 ft | 459 kts | 300° |
| 2026-04-30 05:34 | 46.46588 | 21.33706 | 36283 ft | 460 kts | 300° |
| 2026-04-30 05:35 | 46.49811 | 21.25689 | 36275 ft | 461 kts | 301° |
| 2026-04-30 05:35 | 46.53235 | 21.17818 | 36291 ft | 461 kts | 303° |
| 2026-04-30 05:36 | 46.56762 | 21.10036 | 36299 ft | 461 kts | 303° |
| 2026-04-30 05:36 | 46.60266 | 21.02229 | 36294 ft | 461 kts | 303° |
| 2026-04-30 05:37 | 46.63716 | 20.94447 | 36311 ft | 461 kts | 303° |
| 2026-04-30 05:37 | 46.67174 | 20.86594 | 36316 ft | 461 kts | 303° |
| 2026-04-30 05:38 | 46.70624 | 20.78732 | 36315 ft | 461 kts | 303° |
| 2026-04-30 05:38 | 46.74068 | 20.70865 | 36313 ft | 461 kts | 303° |
| 2026-04-30 05:39 | 46.77512 | 20.62976 | 36327 ft | 461 kts | 303° |
| 2026-04-30 05:39 | 46.80956 | 20.55067 | 36324 ft | 462 kts | 303° |
| 2026-04-30 05:40 | 46.84403 | 20.47129 | 36331 ft | 463 kts | 303° |
| 2026-04-30 05:40 | 46.87850 | 20.39167 | 36330 ft | 464 kts | 303° |
| 2026-04-30 05:41 | 46.91293 | 20.31190 | 36342 ft | 464 kts | 303° |
| 2026-04-30 05:41 | 46.94738 | 20.23187 | 36338 ft | 465 kts | 303° |
| 2026-04-30 05:42 | 46.98173 | 20.15182 | 36354 ft | 465 kts | 303° |
| 2026-04-30 05:42 | 47.01605 | 20.07163 | 36349 ft | 464 kts | 303° |
| 2026-04-30 05:43 | 47.05028 | 19.99140 | 36354 ft | 464 kts | 303° |
| 2026-04-30 05:43 | 47.08442 | 19.91115 | 36369 ft | 463 kts | 303° |
| 2026-04-30 05:44 | 47.11847 | 19.83090 | 36363 ft | 463 kts | 303° |
| 2026-04-30 05:44 | 47.15246 | 19.75052 | 36365 ft | 463 kts | 303° |
| 2026-04-30 05:45 | 47.18640 | 19.67004 | 36362 ft | 463 kts | 303° |
| 2026-04-30 05:45 | 47.22024 | 19.58955 | 36373 ft | 463 kts | 303° |
| 2026-04-30 05:46 | 47.25404 | 19.50894 | 36382 ft | 463 kts | 303° |
| 2026-04-30 05:46 | 47.28778 | 19.42822 | 36389 ft | 463 kts | 303° |
| 2026-04-30 05:47 | 47.32147 | 19.34739 | 36388 ft | 463 kts | 303° |
| 2026-04-30 05:47 | 47.35511 | 19.26641 | 36400 ft | 463 kts | 303° |
| 2026-04-30 05:48 | 47.38873 | 19.18527 | 36401 ft | 464 kts | 303° |
| 2026-04-30 05:48 | 47.42234 | 19.10391 | 36402 ft | 464 kts | 303° |
| 2026-04-30 05:49 | 47.45589 | 19.02244 | 36381 ft | 464 kts | 303° |
| 2026-04-30 05:49 | 47.48916 | 18.94141 | 36388 ft | 464 kts | 303° |
| 2026-04-30 05:50 | 47.52264 | 18.85963 | 36402 ft | 465 kts | 303° |
| 2026-04-30 05:50 | 47.55612 | 18.77759 | 36397 ft | 466 kts | 303° |
| 2026-04-30 05:51 | 47.58961 | 18.69528 | 36380 ft | 467 kts | 303° |
| 2026-04-30 05:51 | 47.62307 | 18.61281 | 36388 ft | 467 kts | 303° |
| 2026-04-30 05:52 | 47.65647 | 18.53020 | 36400 ft | 467 kts | 303° |
| 2026-04-30 05:52 | 47.68982 | 18.44748 | 36418 ft | 467 kts | 303° |
| 2026-04-30 05:53 | 47.72313 | 18.36463 | 36391 ft | 467 kts | 303° |
| 2026-04-30 05:53 | 47.75475 | 18.28006 | 36412 ft | 469 kts | 300° |
| 2026-04-30 05:54 | 47.78404 | 18.19345 | 36418 ft | 469 kts | 299° |
| 2026-04-30 05:54 | 47.81315 | 18.10660 | 36427 ft | 469 kts | 299° |
| 2026-04-30 05:55 | 47.84238 | 18.01977 | 36421 ft | 469 kts | 299° |
| 2026-04-30 05:55 | 47.87164 | 17.93295 | 36422 ft | 469 kts | 299° |
| 2026-04-30 05:56 | 47.90067 | 17.84658 | 36432 ft | 470 kts | 299° |
| 2026-04-30 05:56 | 47.92989 | 17.75933 | 36425 ft | 471 kts | 300° |
| 2026-04-30 05:57 | 47.95917 | 17.67160 | 36431 ft | 473 kts | 300° |
| 2026-04-30 05:57 | 47.98844 | 17.58358 | 36429 ft | 474 kts | 300° |
| 2026-04-30 05:58 | 48.01770 | 17.49527 | 36430 ft | 475 kts | 300° |
| 2026-04-30 05:58 | 48.04699 | 17.40659 | 36429 ft | 476 kts | 299° |
| 2026-04-30 05:59 | 48.07621 | 17.31779 | 36428 ft | 476 kts | 299° |
| 2026-04-30 05:59 | 48.10536 | 17.22889 | 36420 ft | 476 kts | 299° |
| 2026-04-30 06:00 | 48.13442 | 17.13997 | 36423 ft | 475 kts | 299° |
| 2026-04-30 06:00 | 48.16337 | 17.05111 | 36428 ft | 475 kts | 299° |
| 2026-04-30 06:01 | 48.19240 | 16.96241 | 36427 ft | 473 kts | 301° |
| 2026-04-30 06:01 | 48.22453 | 16.87650 | 36435 ft | 472 kts | 303° |
| 2026-04-30 06:02 | 48.25737 | 16.79135 | 36452 ft | 472 kts | 303° |
| 2026-04-30 06:02 | 48.29006 | 16.70590 | 36453 ft | 472 kts | 303° |
| 2026-04-30 06:03 | 48.32248 | 16.62024 | 36461 ft | 472 kts | 303° |
| 2026-04-30 06:03 | 48.35484 | 16.53429 | 36425 ft | 472 kts | 303° |
| 2026-04-30 06:04 | 48.38710 | 16.44830 | 36452 ft | 472 kts | 303° |
| 2026-04-30 06:05 | 48.43540 | 16.31909 | 36457 ft | 473 kts | 303° |
| 2026-04-30 06:05 | 48.46759 | 16.23265 | 36453 ft | 473 kts | 303° |
| 2026-04-30 06:06 | 48.49970 | 16.14609 | 36443 ft | 473 kts | 303° |
| 2026-04-30 06:06 | 48.52635 | 16.07407 | 36455 ft | 473 kts | 303° |
| 2026-04-30 06:07 | 48.55833 | 15.98737 | 36463 ft | 473 kts | 303° |
| 2026-04-30 06:07 | 48.59030 | 15.90042 | 36456 ft | 474 kts | 303° |
| 2026-04-30 06:08 | 48.62220 | 15.81336 | 36460 ft | 474 kts | 303° |
| 2026-04-30 06:08 | 48.65403 | 15.72617 | 36455 ft | 474 kts | 304° |
| 2026-04-30 06:09 | 48.68583 | 15.63884 | 36456 ft | 474 kts | 304° |
| 2026-04-30 06:09 | 48.71866 | 15.55245 | 36455 ft | 472 kts | 307° |
| 2026-04-30 06:10 | 48.75360 | 15.46833 | 36449 ft | 472 kts | 307° |
| 2026-04-30 06:10 | 48.78861 | 15.38411 | 36453 ft | 473 kts | 307° |
| 2026-04-30 06:11 | 48.82337 | 15.29937 | 36457 ft | 474 kts | 307° |
| 2026-04-30 06:11 | 48.85807 | 15.21424 | 36464 ft | 474 kts | 307° |
| 2026-04-30 06:12 | 48.89286 | 15.12897 | 36469 ft | 474 kts | 308° |
| 2026-04-30 06:12 | 48.93208 | 15.05015 | 36444 ft | 469 kts | 315° |
| 2026-04-30 06:13 | 48.97357 | 14.97355 | 36461 ft | 469 kts | 315° |
| 2026-04-30 06:13 | 49.01502 | 14.89663 | 36472 ft | 470 kts | 315° |
| 2026-04-30 06:14 | 49.05631 | 14.81916 | 36466 ft | 471 kts | 314° |
| 2026-04-30 06:14 | 49.09752 | 14.74130 | 36477 ft | 472 kts | 314° |
| 2026-04-30 06:15 | 49.13872 | 14.66319 | 36481 ft | 472 kts | 315° |
| 2026-04-30 06:15 | 49.17994 | 14.58483 | 36478 ft | 473 kts | 315° |
| 2026-04-30 06:16 | 49.22115 | 14.50629 | 36460 ft | 474 kts | 315° |
| 2026-04-30 06:16 | 49.26238 | 14.42747 | 36483 ft | 474 kts | 314° |
| 2026-04-30 06:17 | 49.30356 | 14.34852 | 36441 ft | 474 kts | 315° |
| 2026-04-30 06:17 | 49.34463 | 14.26952 | 36470 ft | 474 kts | 315° |
| 2026-04-30 06:18 | 49.38565 | 14.19040 | 36474 ft | 474 kts | 315° |
| 2026-04-30 06:18 | 49.42667 | 14.11107 | 36472 ft | 474 kts | 315° |
| 2026-04-30 06:19 | 49.46731 | 14.03222 | 36472 ft | 474 kts | 315° |
| 2026-04-30 06:19 | 49.50823 | 13.95257 | 36467 ft | 474 kts | 315° |
| 2026-04-30 06:20 | 49.54905 | 13.87289 | 36468 ft | 474 kts | 315° |
| 2026-04-30 06:20 | 49.58987 | 13.79297 | 36475 ft | 474 kts | 315° |
| 2026-04-30 06:21 | 49.63053 | 13.71313 | 36469 ft | 474 kts | 315° |
| 2026-04-30 06:21 | 49.67124 | 13.63294 | 36478 ft | 474 kts | 315° |
| 2026-04-30 06:22 | 49.71190 | 13.55259 | 36468 ft | 474 kts | 315° |
| 2026-04-30 06:22 | 49.75250 | 13.47216 | 36479 ft | 475 kts | 315° |
| 2026-04-30 06:23 | 49.79309 | 13.39146 | 36480 ft | 475 kts | 315° |
| 2026-04-30 06:23 | 49.83364 | 13.31059 | 36482 ft | 476 kts | 315° |
| 2026-04-30 06:24 | 49.87419 | 13.22951 | 36477 ft | 476 kts | 315° |
| 2026-04-30 06:24 | 49.91467 | 13.14829 | 36469 ft | 476 kts | 315° |
| 2026-04-30 06:25 | 49.95507 | 13.06697 | 36469 ft | 476 kts | 315° |
| 2026-04-30 06:25 | 49.99547 | 12.98544 | 36464 ft | 476 kts | 315° |
| 2026-04-30 06:26 | 50.03579 | 12.90380 | 36465 ft | 476 kts | 314° |
| 2026-04-30 06:26 | 50.07602 | 12.82206 | 36462 ft | 475 kts | 314° |
| 2026-04-30 06:27 | 50.11618 | 12.74024 | 36458 ft | 476 kts | 314° |
| 2026-04-30 06:27 | 50.15636 | 12.65811 | 36465 ft | 476 kts | 314° |
| 2026-04-30 06:28 | 50.19651 | 12.57580 | 36469 ft | 477 kts | 314° |
| 2026-04-30 06:28 | 50.23660 | 12.49332 | 36456 ft | 477 kts | 314° |
| 2026-04-30 06:29 | 50.27663 | 12.41075 | 36469 ft | 476 kts | 314° |
| 2026-04-30 06:29 | 50.31665 | 12.32837 | 36487 ft | 476 kts | 314° |
| 2026-04-30 06:30 | 50.35695 | 12.24620 | 36487 ft | 476 kts | 314° |
| 2026-04-30 06:30 | 50.39719 | 12.16396 | 36475 ft | 476 kts | 314° |
| 2026-04-30 06:31 | 50.43734 | 12.08152 | 36440 ft | 476 kts | 314° |
| 2026-04-30 06:31 | 50.47747 | 11.99876 | 36469 ft | 476 kts | 314° |
| 2026-04-30 06:32 | 50.51725 | 11.91644 | 36473 ft | 476 kts | 314° |
| 2026-04-30 06:32 | 50.55730 | 11.83334 | 36482 ft | 477 kts | 314° |
| 2026-04-30 06:33 | 50.59731 | 11.75004 | 36478 ft | 477 kts | 314° |
| 2026-04-30 06:33 | 50.63727 | 11.66658 | 36492 ft | 477 kts | 313° |
| 2026-04-30 06:34 | 50.67715 | 11.58303 | 36491 ft | 477 kts | 313° |
| 2026-04-30 06:34 | 50.71699 | 11.49928 | 36470 ft | 478 kts | 313° |
| 2026-04-30 06:35 | 50.75684 | 11.41527 | 36463 ft | 478 kts | 313° |
| 2026-04-30 06:35 | 50.79661 | 11.33112 | 36481 ft | 478 kts | 313° |
| 2026-04-30 06:36 | 50.83631 | 11.24685 | 36485 ft | 478 kts | 313° |
| 2026-04-30 06:36 | 50.87593 | 11.16250 | 36498 ft | 478 kts | 313° |
| 2026-04-30 06:37 | 50.91553 | 11.07790 | 36505 ft | 478 kts | 313° |
| 2026-04-30 06:37 | 50.95503 | 10.99327 | 36513 ft | 478 kts | 313° |
| 2026-04-30 06:38 | 50.99449 | 10.90842 | 36480 ft | 478 kts | 312° |
| 2026-04-30 06:38 | 51.03387 | 10.82348 | 36501 ft | 477 kts | 312° |
| 2026-04-30 06:39 | 51.07316 | 10.73843 | 36505 ft | 478 kts | 312° |
| 2026-04-30 06:39 | 51.11248 | 10.65307 | 36498 ft | 478 kts | 312° |
| 2026-04-30 06:40 | 51.15167 | 10.56768 | 36490 ft | 478 kts | 312° |
| 2026-04-30 06:40 | 51.19080 | 10.48215 | 36460 ft | 477 kts | 311° |
| 2026-04-30 06:41 | 51.22952 | 10.39729 | 36489 ft | 477 kts | 311° |
| 2026-04-30 06:41 | 51.26523 | 10.30735 | 36478 ft | 485 kts | 302° |
| 2026-04-30 06:42 | 51.29465 | 10.21037 | 36485 ft | 486 kts | 301° |
| 2026-04-30 06:42 | 51.32364 | 10.11286 | 36494 ft | 486 kts | 301° |
| 2026-04-30 06:43 | 51.35290 | 10.01531 | 36476 ft | 486 kts | 301° |
| 2026-04-30 06:43 | 51.38227 | 9.91785 | 36484 ft | 486 kts | 301° |
| 2026-04-30 06:44 | 51.41166 | 9.82021 | 36485 ft | 487 kts | 301° |
| 2026-04-30 06:44 | 51.44095 | 9.72243 | 36484 ft | 487 kts | 301° |
| 2026-04-30 06:45 | 51.47016 | 9.62447 | 36465 ft | 487 kts | 300° |
| 2026-04-30 06:45 | 51.49928 | 9.52640 | 36471 ft | 487 kts | 300° |
| 2026-04-30 06:46 | 51.52831 | 9.42822 | 36495 ft | 487 kts | 300° |
| 2026-04-30 06:46 | 51.55724 | 9.33001 | 36482 ft | 487 kts | 300° |
| 2026-04-30 06:47 | 51.58615 | 9.23144 | 36475 ft | 487 kts | 300° |
| 2026-04-30 06:47 | 51.61496 | 9.13282 | 36483 ft | 487 kts | 300° |
| 2026-04-30 06:48 | 51.64371 | 9.03397 | 36479 ft | 487 kts | 300° |
| 2026-04-30 06:48 | 51.67239 | 8.93498 | 36457 ft | 488 kts | 300° |
| 2026-04-30 06:49 | 51.70096 | 8.83594 | 36465 ft | 488 kts | 300° |
| 2026-04-30 06:49 | 51.72947 | 8.73669 | 36443 ft | 487 kts | 299° |
| 2026-04-30 06:50 | 51.75786 | 8.63744 | 36453 ft | 487 kts | 299° |
| 2026-04-30 06:50 | 51.78615 | 8.53812 | 36461 ft | 487 kts | 299° |
| 2026-04-30 06:51 | 51.81418 | 8.43932 | 36463 ft | 485 kts | 299° |
| 2026-04-30 06:51 | 51.83531 | 8.36449 | 36471 ft | 483 kts | 298° |
| 2026-04-30 06:52 | 51.86075 | 8.27411 | 36458 ft | 479 kts | 298° |
| 2026-04-30 06:52 | 51.88870 | 8.17466 | 36485 ft | 490 kts | 298° |
| 2026-04-30 06:53 | 51.91671 | 8.07445 | 36475 ft | 491 kts | 298° |
| 2026-04-30 06:53 | 51.93057 | 8.02452 | 36458 ft | 480 kts | 298° |
| 2026-04-30 06:53 | 51.94424 | 7.97525 | 36478 ft | 482 kts | 298° |
| 2026-04-30 06:54 | 51.96732 | 7.89202 | 36488 ft | 491 kts | 298° |
| 2026-04-30 06:54 | 51.99532 | 7.79063 | 36464 ft | 492 kts | 297° |
| 2026-04-30 06:55 | 52.02317 | 7.68919 | 36474 ft | 492 kts | 297° |
| 2026-04-30 06:55 | 52.05093 | 7.58768 | 36481 ft | 491 kts | 297° |
| 2026-04-30 06:56 | 52.07852 | 7.48635 | 36170 ft | 494 kts | 297° |
| 2026-04-30 06:56 | 52.09255 | 7.43477 | 35312 ft | 501 kts | 297° |
| 2026-04-30 06:56 | 52.10664 | 7.38278 | 34471 ft | 502 kts | 297° |
| 2026-04-30 06:56 | 52.12066 | 7.33085 | 33566 ft | 501 kts | 296° |
| 2026-04-30 06:57 | 52.13465 | 7.27888 | 32747 ft | 500 kts | 296° |
| 2026-04-30 06:57 | 52.14856 | 7.22714 | 31906 ft | 499 kts | 296° |
| 2026-04-30 06:57 | 52.16245 | 7.17536 | 30995 ft | 500 kts | 296° |
| 2026-04-30 06:57 | 52.17635 | 7.12348 | 30097 ft | 499 kts | 296° |
| 2026-04-30 06:58 | 52.19011 | 7.07198 | 29407 ft | 493 kts | 296° |
| 2026-04-30 06:58 | 52.20393 | 7.02139 | 28780 ft | 484 kts | 299° |
| 2026-04-30 06:58 | 52.21974 | 6.97433 | 28190 ft | 476 kts | 304° |
| 2026-04-30 06:58 | 52.23797 | 6.92981 | 27531 ft | 469 kts | 310° |
| 2026-04-30 06:59 | 52.25870 | 6.88828 | 26821 ft | 464 kts | 313° |
| 2026-04-30 06:59 | 52.27938 | 6.84813 | 26141 ft | 461 kts | 313° |
| 2026-04-30 06:59 | 52.29955 | 6.80849 | 25529 ft | 458 kts | 312° |
| 2026-04-30 06:59 | 52.31962 | 6.76840 | 24959 ft | 454 kts | 311° |
| 2026-04-30 07:00 | 52.33943 | 6.72857 | 24394 ft | 449 kts | 311° |
| 2026-04-30 07:00 | 52.35904 | 6.68902 | 23776 ft | 446 kts | 311° |
| 2026-04-30 07:00 | 52.37851 | 6.64971 | 23098 ft | 443 kts | 312° |
| 2026-04-30 07:00 | 52.39785 | 6.61063 | 22466 ft | 440 kts | 312° |
| 2026-04-30 07:01 | 52.41706 | 6.57181 | 21839 ft | 437 kts | 312° |
| 2026-04-30 07:01 | 52.43612 | 6.53321 | 21213 ft | 435 kts | 312° |
| 2026-04-30 07:01 | 52.45486 | 6.49467 | 20592 ft | 428 kts | 309° |
| 2026-04-30 07:01 | 52.46872 | 6.45112 | 19771 ft | 438 kts | 289° |
| 2026-04-30 07:02 | 52.47318 | 6.40187 | 19139 ft | 435 kts | 274° |
| 2026-04-30 07:02 | 52.47485 | 6.35243 | 18462 ft | 435 kts | 275° |
| 2026-04-30 07:02 | 52.47695 | 6.30300 | 17847 ft | 432 kts | 276° |
| 2026-04-30 07:02 | 52.47926 | 6.25414 | 17322 ft | 428 kts | 276° |
| 2026-04-30 07:03 | 52.48163 | 6.20582 | 16787 ft | 424 kts | 276° |
| 2026-04-30 07:03 | 52.48399 | 6.15781 | 16247 ft | 421 kts | 276° |
| 2026-04-30 07:03 | 52.48634 | 6.11005 | 15689 ft | 418 kts | 276° |
| 2026-04-30 07:03 | 52.48863 | 6.06261 | 15153 ft | 416 kts | 276° |
| 2026-04-30 07:04 | 52.49087 | 6.01550 | 14626 ft | 413 kts | 276° |
| 2026-04-30 07:04 | 52.49308 | 5.96858 | 14103 ft | 411 kts | 275° |
| 2026-04-30 07:04 | 52.49525 | 5.92235 | 13592 ft | 406 kts | 275° |
| 2026-04-30 07:04 | 52.49734 | 5.87702 | 12861 ft | 394 kts | 275° |
| 2026-04-30 07:05 | 52.50115 | 5.79379 | 12286 ft | 335 kts | 275° |
| 2026-04-30 07:05 | 52.50281 | 5.75725 | 11863 ft | 318 kts | 275° |
| 2026-04-30 07:05 | 52.50443 | 5.72154 | 11287 ft | 310 kts | 275° |
| 2026-04-30 07:06 | 52.50602 | 5.68655 | 10697 ft | 303 kts | 275° |
| 2026-04-30 07:06 | 52.50750 | 5.65339 | 10640 ft | 288 kts | 275° |
| 2026-04-30 07:06 | 52.50899 | 5.61977 | 10560 ft | 303 kts | 275° |
| 2026-04-30 07:06 | 52.51054 | 5.58461 | 10330 ft | 315 kts | 274° |
| 2026-04-30 07:07 | 52.51133 | 5.54842 | 9953 ft | 319 kts | 268° |
| 2026-04-30 07:07 | 52.50978 | 5.51218 | 9613 ft | 317 kts | 263° |
| 2026-04-30 07:07 | 52.50747 | 5.47623 | 9268 ft | 316 kts | 263° |
| 2026-04-30 07:07 | 52.50510 | 5.44046 | 8940 ft | 315 kts | 263° |
| 2026-04-30 07:08 | 52.50283 | 5.40482 | 8608 ft | 314 kts | 263° |
| 2026-04-30 07:08 | 52.50065 | 5.36923 | 8275 ft | 313 kts | 263° |
| 2026-04-30 07:08 | 52.49858 | 5.33458 | 7944 ft | 312 kts | 263° |
| 2026-04-30 07:08 | 52.49651 | 5.29906 | 7620 ft | 311 kts | 263° |
| 2026-04-30 07:09 | 52.49449 | 5.26388 | 7311 ft | 309 kts | 263° |
| 2026-04-30 07:09 | 52.49249 | 5.22878 | 6987 ft | 308 kts | 263° |
| 2026-04-30 07:09 | 52.49050 | 5.19399 | 6664 ft | 307 kts | 263° |
| 2026-04-30 07:09 | 52.48853 | 5.15936 | 6353 ft | 304 kts | 263° |
| 2026-04-30 07:10 | 52.48654 | 5.12480 | 6037 ft | 302 kts | 263° |
| 2026-04-30 07:10 | 52.48458 | 5.09058 | 5726 ft | 300 kts | 263° |
| 2026-04-30 07:10 | 52.48260 | 5.05648 | 5394 ft | 299 kts | 263° |
| 2026-04-30 07:10 | 52.48063 | 5.02257 | 5051 ft | 298 kts | 263° |
| 2026-04-30 07:11 | 52.47867 | 4.98877 | 4709 ft | 297 kts | 263° |
| 2026-04-30 07:11 | 52.47900 | 4.95534 | 4359 ft | 295 kts | 275° |
| 2026-04-30 07:11 | 52.48192 | 4.92199 | 4013 ft | 295 kts | 278° |
| 2026-04-30 07:11 | 52.48531 | 4.88878 | 3705 ft | 294 kts | 278° |
| 2026-04-30 07:12 | 52.48873 | 4.85583 | 3496 ft | 288 kts | 278° |
| 2026-04-30 07:12 | 52.49207 | 4.82404 | 3418 ft | 278 kts | 278° |
| 2026-04-30 07:12 | 52.49527 | 4.79381 | 3287 ft | 260 kts | 277° |
| 2026-04-30 07:12 | 52.49525 | 4.76569 | 3112 ft | 235 kts | 248° |
| 2026-04-30 07:13 | 52.48749 | 4.74503 | 2969 ft | 198 kts | 211° |
| 2026-04-30 07:13 | 52.47622 | 4.73436 | 2608 ft | 182 kts | 194° |
| 2026-04-30 07:13 | 52.46442 | 4.72672 | 2172 ft | 177 kts | 187° |
| 2026-04-30 07:13 | 52.45298 | 4.72279 | 1994 ft | 164 kts | 180° |
| 2026-04-30 07:14 | 52.44153 | 4.71954 | 1822 ft | 168 kts | 181° |
| 2026-04-30 07:14 | 52.43028 | 4.71683 | 1486 ft | 158 kts | 175° |
| 2026-04-30 07:14 | 52.41978 | 4.71638 | 1212 ft | 145 kts | 171° |
| 2026-04-30 07:14 | 52.40951 | 4.71642 | 1061 ft | 149 kts | 173° |
| 2026-04-30 07:15 | 52.39927 | 4.71552 | 859 ft | 145 kts | 174° |
| 2026-04-30 07:15 | 52.38972 | 4.71489 | 618 ft | 148 kts | 177° |
| 2026-04-30 07:15 | 52.37951 | 4.71370 | 415 ft | 149 kts | 178° |
| 2026-04-30 07:15 | 52.36900 | 4.71251 | 221 ft | 153 kts | 176° |
| 2026-04-30 07:16 | 52.35828 | 4.71163 | 41 ft | 155 kts | 178° |
| 2026-04-30 07:16 | 52.34825 | 4.71080 | 5 ft | 128 kts | 185° |
| 2026-04-30 07:16 | 52.34095 | 4.71004 | 1 ft | 79 kts | 183° |
| 2026-04-30 07:16 | 52.33768 | 4.71082 | 4 ft | 36 kts | 152° |
| 2026-04-30 07:17 | 52.33560 | 4.71235 | 4 ft | 26 kts | 172° |
| 2026-04-30 07:17 | 52.33415 | 4.71225 | 4 ft | 20 kts | 183° |
| 2026-04-30 07:17 | 52.33166 | 4.71362 | 4 ft | 20 kts | 131° |
| 2026-04-30 07:18 | 52.33073 | 4.71536 | 4 ft | 20 kts | 132° |
| 2026-04-30 07:18 | 52.32978 | 4.71707 | 4 ft | 20 kts | 131° |
| 2026-04-30 07:18 | 52.32885 | 4.71880 | 4 ft | 20 kts | 131° |
| 2026-04-30 07:18 | 52.32834 | 4.72086 | 4 ft | 20 kts | 86° |
| 2026-04-30 07:19 | 52.32800 | 4.72299 | 4 ft | 20 kts | 130° |
| 2026-04-30 07:19 | 52.32704 | 4.72469 | 4 ft | 20 kts | 132° |
| 2026-04-30 07:19 | 52.32603 | 4.72630 | 4 ft | 20 kts | 139° |
| 2026-04-30 07:19 | 52.32498 | 4.72783 | 4 ft | 20 kts | 138° |
| 2026-04-30 07:20 | 52.32393 | 4.72936 | 4 ft | 20 kts | 138° |
| 2026-04-30 07:20 | 52.32283 | 4.73081 | 4 ft | 20 kts | 140° |
| 2026-04-30 07:20 | 52.32177 | 4.73229 | 4 ft | 18 kts | 138° |
| 2026-04-30 07:20 | 52.32087 | 4.73365 | 4 ft | 18 kts | 130° |
| 2026-04-30 07:21 | 52.32054 | 4.73556 | 4 ft | 18 kts | 94° |
| 2026-04-30 07:21 | 52.32047 | 4.73757 | 4 ft | 18 kts | 93° |
| 2026-04-30 07:21 | 52.32040 | 4.73959 | 3 ft | 18 kts | 93° |
| 2026-04-30 07:21 | 52.32023 | 4.74134 | 4 ft | 14 kts | 122° |
| 2026-04-30 07:22 | 52.31782 | 4.74176 | 4 ft | 21 kts | 183° |
| 2026-04-30 07:22 | 52.31638 | 4.74162 | 4 ft | 21 kts | 183° |
| 2026-04-30 07:22 | 52.31506 | 4.74150 | 4 ft | 16 kts | 183° |
| 2026-04-30 07:23 | 52.31405 | 4.74174 | 4 ft | 14 kts | 132° |
| 2026-04-30 07:23 | 52.31390 | 4.74330 | 4 ft | 14 kts | 88° |
| 2026-04-30 07:23 | 52.31394 | 4.74490 | 4 ft | 14 kts | 87° |
| 2026-04-30 07:23 | 52.31399 | 4.74650 | 4 ft | 14 kts | 86° |
| 2026-04-30 07:24 | 52.31404 | 4.74808 | 4 ft | 14 kts | 87° |
| 2026-04-30 07:24 | 52.31409 | 4.74967 | 4 ft | 14 kts | 87° |
| 2026-04-30 07:24 | 52.31414 | 4.75138 | 3 ft | 17 kts | 88° |
| 2026-04-30 07:24 | 52.31421 | 4.75352 | 4 ft | 19 kts | 86° |
| 2026-04-30 07:25 | 52.31429 | 4.75568 | 4 ft | 19 kts | 86° |
| 2026-04-30 07:25 | 52.31436 | 4.75784 | 4 ft | 19 kts | 87° |
| 2026-04-30 07:25 | 52.31443 | 4.76000 | 4 ft | 19 kts | 87° |
| 2026-04-30 07:25 | 52.31454 | 4.76215 | 4 ft | 19 kts | 86° |
| 2026-04-30 07:26 | 52.31435 | 4.76374 | 4 ft | 14 kts | 141° |
| 2026-04-30 07:26 | 52.31344 | 4.76444 | 4 ft | 14 kts | 147° |
| 2026-04-30 07:26 | 52.31280 | 4.76570 | 4 ft | 14 kts | 122° |
| 2026-04-30 07:26 | 52.31264 | 4.76612 | 4 ft | 0 kts | 123° |